CFG272 EDDF-TAPA
Flight info
| Callsign | CFG272 |
|---|---|
| Flight time | 8h 58m |
| Altitude | 22000 |
| Route | SOBRA2U/18 SOBRA Y180 NISIV/N0466F350 Y180 DIK UN857 TOLVU DCT RAPOR DCT GIMER DCT ESTOC UT300 ELCOB DCT GALBO/N0464F360 UN491 EKRAS/N0463F370 UN491 UPALO UN585 FEJAC DCT BADUR DCT REGHI/M082F380 UN480 ETIKI DCT 46N020W 42N030W 38N040W 36N045W 32N050W 27N055W 20N060W DCT AMTTO DCT ANU |
| Aircraft | A339/H-SADE1E2E3GHIJ3J5M1P2RWXY/LB2D1 |
Departure
| Time | 2026-04-07 10:32 |
|---|---|
| Airport | Frankfurt Main Airport (EDDF) |
Arrival
| Time | 2026-04-07 19:30 |
|---|---|
| Airport | V. C. Bird International Airport (TAPA) |
| Time | Latitude | Longitude | Altitude | Speed | Heading |
|---|---|---|---|---|---|
| 2026-04-07 09:40 | 50.04804 | 8.57694 | 367 ft | 0 kts | 233° |
| 2026-04-07 10:14 | 50.04809 | 8.57703 | 365 ft | 2 kts | 233° |
| 2026-04-07 10:14 | 50.04821 | 8.57728 | 366 ft | 3 kts | 232° |
| 2026-04-07 10:14 | 50.04833 | 8.57753 | 366 ft | 2 kts | 232° |
| 2026-04-07 10:15 | 50.04841 | 8.57773 | 363 ft | 3 kts | 216° |
| 2026-04-07 10:15 | 50.04849 | 8.57788 | 368 ft | 3 kts | 174° |
| 2026-04-07 10:15 | 50.04855 | 8.57794 | 367 ft | 3 kts | 126° |
| 2026-04-07 10:15 | 50.04866 | 8.57769 | 363 ft | 3 kts | 114° |
| 2026-04-07 10:16 | 50.04872 | 8.57749 | 365 ft | 1 kts | 113° |
| 2026-04-07 10:16 | 50.04869 | 8.57758 | 363 ft | 2 kts | 113° |
| 2026-04-07 10:16 | 50.04861 | 8.57786 | 367 ft | 3 kts | 113° |
| 2026-04-07 10:16 | 50.04854 | 8.57812 | 369 ft | 2 kts | 113° |
| 2026-04-07 10:17 | 50.04852 | 8.57817 | 369 ft | 0 kts | 113° |
| 2026-04-07 10:19 | 50.04850 | 8.57826 | 365 ft | 2 kts | 113° |
| 2026-04-07 10:19 | 50.04837 | 8.57864 | 370 ft | 7 kts | 120° |
| 2026-04-07 10:20 | 50.04787 | 8.57913 | 367 ft | 9 kts | 158° |
| 2026-04-07 10:20 | 50.04724 | 8.57951 | 367 ft | 10 kts | 159° |
| 2026-04-07 10:20 | 50.04657 | 8.57989 | 368 ft | 10 kts | 160° |
| 2026-04-07 10:20 | 50.04594 | 8.58025 | 369 ft | 9 kts | 160° |
| 2026-04-07 10:21 | 50.04550 | 8.58021 | 372 ft | 4 kts | 205° |
| 2026-04-07 10:21 | 50.04528 | 8.57958 | 370 ft | 12 kts | 246° |
| 2026-04-07 10:21 | 50.04488 | 8.57792 | 370 ft | 20 kts | 250° |
| 2026-04-07 10:21 | 50.04432 | 8.57558 | 370 ft | 26 kts | 250° |
| 2026-04-07 10:22 | 50.04368 | 8.57290 | 372 ft | 26 kts | 249° |
| 2026-04-07 10:22 | 50.04305 | 8.57025 | 369 ft | 26 kts | 249° |
| 2026-04-07 10:22 | 50.04241 | 8.56756 | 368 ft | 27 kts | 249° |
| 2026-04-07 10:22 | 50.04175 | 8.56480 | 364 ft | 28 kts | 250° |
| 2026-04-07 10:23 | 50.04107 | 8.56195 | 363 ft | 28 kts | 249° |
| 2026-04-07 10:23 | 50.04038 | 8.55910 | 363 ft | 28 kts | 250° |
| 2026-04-07 10:23 | 50.03971 | 8.55625 | 356 ft | 28 kts | 250° |
| 2026-04-07 10:23 | 50.03903 | 8.55343 | 362 ft | 28 kts | 249° |
| 2026-04-07 10:24 | 50.03837 | 8.55066 | 363 ft | 27 kts | 250° |
| 2026-04-07 10:24 | 50.03771 | 8.54788 | 355 ft | 27 kts | 250° |
| 2026-04-07 10:24 | 50.03715 | 8.54556 | 353 ft | 22 kts | 249° |
| 2026-04-07 10:24 | 50.03675 | 8.54386 | 356 ft | 16 kts | 250° |
| 2026-04-07 10:25 | 50.03635 | 8.54221 | 354 ft | 17 kts | 249° |
| 2026-04-07 10:25 | 50.03594 | 8.54051 | 352 ft | 17 kts | 249° |
| 2026-04-07 10:25 | 50.03551 | 8.53873 | 348 ft | 18 kts | 249° |
| 2026-04-07 10:25 | 50.03507 | 8.53684 | 353 ft | 19 kts | 250° |
| 2026-04-07 10:26 | 50.03460 | 8.53487 | 353 ft | 20 kts | 249° |
| 2026-04-07 10:26 | 50.03411 | 8.53286 | 349 ft | 20 kts | 250° |
| 2026-04-07 10:26 | 50.03364 | 8.53086 | 348 ft | 16 kts | 250° |
| 2026-04-07 10:26 | 50.03337 | 8.52976 | 344 ft | 8 kts | 249° |
| 2026-04-07 10:27 | 50.03330 | 8.52943 | 337 ft | 0 kts | 250° |
| 2026-04-07 10:27 | 50.03326 | 8.52929 | 337 ft | 2 kts | 250° |
| 2026-04-07 10:28 | 50.03314 | 8.52881 | 336 ft | 7 kts | 249° |
| 2026-04-07 10:28 | 50.03295 | 8.52800 | 337 ft | 8 kts | 249° |
| 2026-04-07 10:28 | 50.03286 | 8.52764 | 336 ft | 0 kts | 250° |
| 2026-04-07 10:29 | 50.03278 | 8.52730 | 336 ft | 7 kts | 250° |
| 2026-04-07 10:29 | 50.03268 | 8.52646 | 341 ft | 8 kts | 267° |
| 2026-04-07 10:30 | 50.03243 | 8.52598 | 338 ft | 5 kts | 205° |
| 2026-04-07 10:30 | 50.03213 | 8.52596 | 339 ft | 0 kts | 180° |
| 2026-04-07 10:30 | 50.03209 | 8.52596 | 339 ft | 2 kts | 180° |
| 2026-04-07 10:31 | 50.03093 | 8.52597 | 341 ft | 46 kts | 179° |
| 2026-04-07 10:31 | 50.02502 | 8.52605 | 341 ft | 121 kts | 180° |
| 2026-04-07 10:31 | 50.01449 | 8.52613 | 350 ft | 177 kts | 180° |
| 2026-04-07 10:31 | 50.00149 | 8.52608 | 821 ft | 188 kts | 176° |
| 2026-04-07 10:32 | 49.98816 | 8.52631 | 1568 ft | 192 kts | 175° |
| 2026-04-07 10:32 | 49.97481 | 8.52685 | 2258 ft | 197 kts | 174° |
| 2026-04-07 10:32 | 49.96053 | 8.52785 | 2680 ft | 213 kts | 174° |
| 2026-04-07 10:32 | 49.94522 | 8.52915 | 3112 ft | 226 kts | 174° |
| 2026-04-07 10:33 | 49.92944 | 8.53051 | 3743 ft | 227 kts | 174° |
| 2026-04-07 10:33 | 49.91350 | 8.53184 | 4284 ft | 237 kts | 175° |
| 2026-04-07 10:33 | 49.89689 | 8.53291 | 4903 ft | 241 kts | 177° |
| 2026-04-07 10:33 | 49.88004 | 8.53289 | 5484 ft | 244 kts | 184° |
| 2026-04-07 10:34 | 49.86319 | 8.52824 | 6004 ft | 248 kts | 197° |
| 2026-04-07 10:34 | 49.84685 | 8.51951 | 6565 ft | 252 kts | 200° |
| 2026-04-07 10:34 | 49.82974 | 8.50984 | 6805 ft | 271 kts | 201° |
| 2026-04-07 10:34 | 49.81164 | 8.49947 | 7139 ft | 283 kts | 201° |
| 2026-04-07 10:35 | 49.79288 | 8.48905 | 7643 ft | 288 kts | 201° |
| 2026-04-07 10:35 | 49.77464 | 8.47610 | 8178 ft | 289 kts | 218° |
| 2026-04-07 10:35 | 49.76103 | 8.45368 | 8780 ft | 286 kts | 242° |
| 2026-04-07 10:35 | 49.75470 | 8.42494 | 9369 ft | 283 kts | 267° |
| 2026-04-07 10:36 | 49.75646 | 8.39532 | 9979 ft | 280 kts | 287° |
| 2026-04-07 10:36 | 49.76270 | 8.36668 | 10550 ft | 283 kts | 292° |
| 2026-04-07 10:36 | 49.76976 | 8.33718 | 10715 ft | 301 kts | 291° |
| 2026-04-07 10:36 | 49.77647 | 8.30550 | 10871 ft | 318 kts | 289° |
| 2026-04-07 10:37 | 49.78263 | 8.27173 | 11120 ft | 331 kts | 287° |
| 2026-04-07 10:37 | 49.78838 | 8.23702 | 11635 ft | 334 kts | 286° |
| 2026-04-07 10:37 | 49.79397 | 8.20196 | 12158 ft | 337 kts | 285° |
| 2026-04-07 10:37 | 49.79957 | 8.16654 | 12702 ft | 339 kts | 285° |
| 2026-04-07 10:38 | 49.80514 | 8.13129 | 13179 ft | 343 kts | 285° |
| 2026-04-07 10:38 | 49.81080 | 8.09538 | 13722 ft | 345 kts | 285° |
| 2026-04-07 10:38 | 49.81652 | 8.05920 | 14235 ft | 348 kts | 285° |
| 2026-04-07 10:38 | 49.82228 | 8.02271 | 14736 ft | 349 kts | 285° |
| 2026-04-07 10:39 | 49.82805 | 7.98609 | 15199 ft | 351 kts | 285° |
| 2026-04-07 10:39 | 49.83384 | 7.94923 | 15691 ft | 354 kts | 285° |
| 2026-04-07 10:39 | 49.83967 | 7.91201 | 16172 ft | 356 kts | 285° |
| 2026-04-07 10:39 | 49.84553 | 7.87460 | 16638 ft | 358 kts | 285° |
| 2026-04-07 10:40 | 49.85141 | 7.83698 | 17102 ft | 360 kts | 285° |
| 2026-04-07 10:40 | 49.85731 | 7.79914 | 17569 ft | 362 kts | 285° |
| 2026-04-07 10:40 | 49.86324 | 7.76104 | 18040 ft | 365 kts | 285° |
| 2026-04-07 10:40 | 49.86926 | 7.72273 | 18496 ft | 367 kts | 285° |
| 2026-04-07 10:41 | 49.87533 | 7.68414 | 18905 ft | 369 kts | 285° |
| 2026-04-07 10:41 | 49.88128 | 7.64580 | 19332 ft | 371 kts | 285° |
| 2026-04-07 10:41 | 49.88732 | 7.60670 | 19725 ft | 374 kts | 285° |
| 2026-04-07 10:41 | 49.89337 | 7.56736 | 20129 ft | 376 kts | 285° |
| 2026-04-07 10:42 | 49.89946 | 7.52782 | 20540 ft | 378 kts | 285° |
| 2026-04-07 10:42 | 49.90556 | 7.48800 | 20959 ft | 381 kts | 285° |
| 2026-04-07 10:42 | 49.91170 | 7.44791 | 21374 ft | 383 kts | 285° |
| 2026-04-07 10:42 | 49.91785 | 7.40754 | 21785 ft | 385 kts | 285° |
| 2026-04-07 10:43 | 49.92403 | 7.36695 | 22214 ft | 388 kts | 285° |
| 2026-04-07 10:43 | 49.93025 | 7.32605 | 22620 ft | 390 kts | 285° |
| 2026-04-07 10:43 | 49.93648 | 7.28491 | 23033 ft | 393 kts | 285° |
| 2026-04-07 10:43 | 49.94275 | 7.24345 | 23418 ft | 396 kts | 284° |
| 2026-04-07 10:44 | 49.94905 | 7.20169 | 23853 ft | 398 kts | 284° |
| 2026-04-07 10:44 | 49.95527 | 7.16028 | 24200 ft | 400 kts | 284° |
| 2026-04-07 10:44 | 49.96168 | 7.11753 | 24578 ft | 402 kts | 284° |
| 2026-04-07 10:44 | 49.96793 | 7.07565 | 24926 ft | 404 kts | 284° |
| 2026-04-07 10:45 | 49.97430 | 7.03297 | 25280 ft | 406 kts | 284° |
| 2026-04-07 10:45 | 49.98067 | 6.99012 | 25628 ft | 409 kts | 284° |
| 2026-04-07 10:45 | 49.98703 | 6.94695 | 25969 ft | 410 kts | 283° |
| 2026-04-07 10:45 | 49.99131 | 6.90295 | 26330 ft | 413 kts | 276° |
| 2026-04-07 10:46 | 49.99222 | 6.85817 | 26665 ft | 417 kts | 270° |
| 2026-04-07 10:46 | 49.99069 | 6.81301 | 26955 ft | 420 kts | 268° |
| 2026-04-07 10:46 | 49.98922 | 6.76749 | 27315 ft | 422 kts | 269° |
| 2026-04-07 10:46 | 49.98784 | 6.72187 | 27652 ft | 424 kts | 269° |
| 2026-04-07 10:47 | 49.98647 | 6.67601 | 27988 ft | 426 kts | 269° |
| 2026-04-07 10:47 | 49.98509 | 6.63043 | 28306 ft | 428 kts | 268° |
| 2026-04-07 10:47 | 49.98190 | 6.58431 | 28596 ft | 431 kts | 261° |
| 2026-04-07 10:47 | 49.97501 | 6.53876 | 28900 ft | 435 kts | 254° |
| 2026-04-07 10:48 | 49.96454 | 6.49451 | 29200 ft | 438 kts | 248° |
| 2026-04-07 10:48 | 49.95211 | 6.45125 | 29499 ft | 440 kts | 248° |
| 2026-04-07 10:48 | 49.93978 | 6.40764 | 29796 ft | 442 kts | 248° |
| 2026-04-07 10:48 | 49.92746 | 6.36383 | 30107 ft | 444 kts | 248° |
| 2026-04-07 10:49 | 49.91514 | 6.31991 | 30474 ft | 444 kts | 248° |
| 2026-04-07 10:49 | 49.90274 | 6.27586 | 30719 ft | 446 kts | 248° |
| 2026-04-07 10:49 | 49.88993 | 6.23184 | 30962 ft | 449 kts | 246° |
| 2026-04-07 10:49 | 49.87709 | 6.18763 | 31252 ft | 450 kts | 248° |
| 2026-04-07 10:50 | 49.86411 | 6.14334 | 31505 ft | 453 kts | 244° |
| 2026-04-07 10:50 | 49.84819 | 6.10098 | 31744 ft | 456 kts | 237° |
| 2026-04-07 10:50 | 49.83000 | 6.06131 | 32031 ft | 457 kts | 236° |
| 2026-04-07 10:50 | 49.81141 | 6.02114 | 32265 ft | 460 kts | 235° |
| 2026-04-07 10:51 | 49.79272 | 5.98058 | 32468 ft | 463 kts | 236° |
| 2026-04-07 10:51 | 49.77399 | 5.93996 | 32738 ft | 463 kts | 236° |
| 2026-04-07 10:51 | 49.75552 | 5.89891 | 32907 ft | 465 kts | 238° |
| 2026-04-07 10:51 | 49.73984 | 5.85576 | 33120 ft | 465 kts | 245° |
| 2026-04-07 10:52 | 49.72730 | 5.80988 | 33393 ft | 463 kts | 251° |
| 2026-04-07 10:52 | 49.71663 | 5.76279 | 33551 ft | 465 kts | 251° |
| 2026-04-07 10:52 | 49.70582 | 5.71556 | 33665 ft | 466 kts | 251° |
| 2026-04-07 10:52 | 49.69488 | 5.66831 | 33862 ft | 466 kts | 251° |
| 2026-04-07 10:53 | 49.68390 | 5.62116 | 33970 ft | 467 kts | 250° |
| 2026-04-07 10:53 | 49.67284 | 5.57385 | 34111 ft | 468 kts | 250° |
| 2026-04-07 10:53 | 49.66177 | 5.52666 | 34349 ft | 465 kts | 250° |
| 2026-04-07 10:53 | 49.65073 | 5.47968 | 34486 ft | 466 kts | 250° |
| 2026-04-07 10:54 | 49.63964 | 5.43260 | 34599 ft | 466 kts | 250° |
| 2026-04-07 10:54 | 49.62870 | 5.38622 | 34801 ft | 464 kts | 250° |
| 2026-04-07 10:54 | 49.61787 | 5.33951 | 35064 ft | 461 kts | 250° |
| 2026-04-07 10:55 | 49.59792 | 5.24527 | 35273 ft | 461 kts | 251° |
| 2026-04-07 10:55 | 49.57918 | 5.15064 | 35283 ft | 463 kts | 254° |
| 2026-04-07 10:56 | 49.56570 | 5.07084 | 35281 ft | 461 kts | 255° |
| 2026-04-07 10:56 | 49.54638 | 4.95932 | 35278 ft | 462 kts | 254° |
| 2026-04-07 10:57 | 49.53217 | 4.87948 | 35275 ft | 463 kts | 253° |
| 2026-04-07 10:57 | 49.51495 | 4.78384 | 35275 ft | 462 kts | 253° |
| 2026-04-07 10:58 | 49.49778 | 4.68904 | 35276 ft | 464 kts | 253° |
| 2026-04-07 10:58 | 49.48045 | 4.59361 | 35271 ft | 462 kts | 253° |
| 2026-04-07 10:59 | 49.46298 | 4.49806 | 35271 ft | 463 kts | 253° |
| 2026-04-07 10:59 | 49.44548 | 4.40272 | 35280 ft | 462 kts | 252° |
| 2026-04-07 11:00 | 49.42788 | 4.30744 | 35280 ft | 464 kts | 252° |
| 2026-04-07 11:00 | 49.41021 | 4.21225 | 35277 ft | 463 kts | 252° |
| 2026-04-07 11:01 | 49.39255 | 4.11762 | 35265 ft | 463 kts | 252° |
| 2026-04-07 11:01 | 49.37469 | 4.02234 | 35260 ft | 464 kts | 252° |
| 2026-04-07 11:02 | 49.35759 | 3.92747 | 35268 ft | 464 kts | 255° |
| 2026-04-07 11:02 | 49.34435 | 3.83021 | 35271 ft | 465 kts | 257° |
| 2026-04-07 11:03 | 49.33104 | 3.73312 | 35269 ft | 465 kts | 256° |
| 2026-04-07 11:03 | 49.31715 | 3.63625 | 35268 ft | 465 kts | 256° |
| 2026-04-07 11:04 | 49.30305 | 3.53935 | 35269 ft | 465 kts | 255° |
| 2026-04-07 11:04 | 49.28895 | 3.44309 | 35259 ft | 462 kts | 255° |
| 2026-04-07 11:05 | 49.27486 | 3.34761 | 35243 ft | 463 kts | 255° |
| 2026-04-07 11:05 | 49.26063 | 3.25159 | 35240 ft | 462 kts | 255° |
| 2026-04-07 11:06 | 49.24629 | 3.15542 | 35242 ft | 464 kts | 255° |
| 2026-04-07 11:06 | 49.23184 | 3.05914 | 35257 ft | 463 kts | 255° |
| 2026-04-07 11:07 | 49.21737 | 2.96327 | 35231 ft | 462 kts | 254° |
| 2026-04-07 11:07 | 49.20292 | 2.86817 | 35230 ft | 462 kts | 254° |
| 2026-04-07 11:08 | 49.18831 | 2.77261 | 35226 ft | 461 kts | 254° |
| 2026-04-07 11:08 | 49.17362 | 2.67710 | 35227 ft | 461 kts | 254° |
| 2026-04-07 11:09 | 49.15886 | 2.58159 | 35231 ft | 461 kts | 254° |
| 2026-04-07 11:09 | 49.14403 | 2.48631 | 35229 ft | 461 kts | 254° |
| 2026-04-07 11:10 | 49.12940 | 2.39159 | 35223 ft | 461 kts | 256° |
| 2026-04-07 11:10 | 49.12015 | 2.29427 | 35205 ft | 463 kts | 259° |
| 2026-04-07 11:11 | 49.11130 | 2.19697 | 35214 ft | 463 kts | 259° |
| 2026-04-07 11:11 | 49.10221 | 2.09969 | 35210 ft | 463 kts | 258° |
| 2026-04-07 11:12 | 49.08643 | 2.00529 | 35210 ft | 457 kts | 246° |
| 2026-04-07 11:12 | 49.06048 | 1.91724 | 35202 ft | 456 kts | 242° |
| 2026-04-07 11:13 | 49.03396 | 1.82937 | 35215 ft | 456 kts | 242° |
| 2026-04-07 11:13 | 49.00740 | 1.74138 | 35442 ft | 457 kts | 242° |
| 2026-04-07 11:13 | 48.99414 | 1.69756 | 35634 ft | 455 kts | 242° |
| 2026-04-07 11:14 | 48.98101 | 1.65432 | 35761 ft | 455 kts | 242° |
| 2026-04-07 11:14 | 48.96754 | 1.61007 | 35918 ft | 455 kts | 242° |
| 2026-04-07 11:14 | 48.95440 | 1.56699 | 36060 ft | 454 kts | 242° |
| 2026-04-07 11:14 | 48.94108 | 1.52337 | 36192 ft | 454 kts | 242° |
| 2026-04-07 11:15 | 48.92776 | 1.47986 | 36335 ft | 453 kts | 242° |
| 2026-04-07 11:15 | 48.91445 | 1.43640 | 36472 ft | 453 kts | 242° |
| 2026-04-07 11:15 | 48.90112 | 1.39300 | 36608 ft | 453 kts | 242° |
| 2026-04-07 11:15 | 48.88780 | 1.34967 | 36731 ft | 452 kts | 242° |
| 2026-04-07 11:16 | 48.87448 | 1.30644 | 36886 ft | 452 kts | 242° |
| 2026-04-07 11:16 | 48.86114 | 1.26321 | 36993 ft | 452 kts | 242° |
| 2026-04-07 11:16 | 48.84772 | 1.21984 | 37109 ft | 452 kts | 242° |
| 2026-04-07 11:17 | 48.82098 | 1.13358 | 37207 ft | 451 kts | 242° |
| 2026-04-07 11:17 | 48.79438 | 1.04806 | 37204 ft | 451 kts | 242° |
| 2026-04-07 11:18 | 48.76753 | 0.96204 | 37194 ft | 451 kts | 242° |
| 2026-04-07 11:18 | 48.75650 | 0.91742 | 37198 ft | 455 kts | 253° |
| 2026-04-07 11:18 | 48.75156 | 0.86978 | 37198 ft | 461 kts | 264° |
| 2026-04-07 11:18 | 48.75310 | 0.82107 | 37188 ft | 465 kts | 276° |
| 2026-04-07 11:19 | 48.75940 | 0.77294 | 37178 ft | 466 kts | 278° |
| 2026-04-07 11:19 | 48.77203 | 0.67715 | 37172 ft | 466 kts | 278° |
| 2026-04-07 11:20 | 48.78433 | 0.58069 | 37169 ft | 466 kts | 277° |
| 2026-04-07 11:20 | 48.79374 | 0.48391 | 37161 ft | 463 kts | 272° |
| 2026-04-07 11:21 | 48.79973 | 0.38661 | 37165 ft | 463 kts | 272° |
| 2026-04-07 11:21 | 48.80586 | 0.28927 | 37156 ft | 463 kts | 272° |
| 2026-04-07 11:22 | 48.81185 | 0.19261 | 37154 ft | 463 kts | 272° |
| 2026-04-07 11:22 | 48.81777 | 0.09533 | 37149 ft | 463 kts | 272° |
| 2026-04-07 11:23 | 48.82362 | -0.00218 | 37151 ft | 463 kts | 272° |
| 2026-04-07 11:23 | 48.82933 | -0.09885 | 37150 ft | 463 kts | 272° |
| 2026-04-07 11:24 | 48.83501 | -0.19617 | 37144 ft | 463 kts | 272° |
| 2026-04-07 11:24 | 48.84056 | -0.29361 | 37144 ft | 462 kts | 272° |
| 2026-04-07 11:25 | 48.84833 | -0.43968 | 37139 ft | 462 kts | 272° |
| 2026-04-07 11:25 | 48.85343 | -0.53701 | 37137 ft | 462 kts | 272° |
| 2026-04-07 11:26 | 48.85846 | -0.63450 | 37136 ft | 462 kts | 272° |
| 2026-04-07 11:26 | 48.86341 | -0.73185 | 37135 ft | 462 kts | 272° |
| 2026-04-07 11:27 | 48.86825 | -0.82872 | 37130 ft | 462 kts | 272° |
| 2026-04-07 11:27 | 48.87304 | -0.92615 | 37129 ft | 462 kts | 271° |
| 2026-04-07 11:28 | 48.87774 | -1.02362 | 37120 ft | 463 kts | 271° |
| 2026-04-07 11:28 | 48.88236 | -1.12104 | 37114 ft | 462 kts | 271° |
| 2026-04-07 11:29 | 48.88690 | -1.21856 | 37116 ft | 463 kts | 271° |
| 2026-04-07 11:29 | 48.89136 | -1.31615 | 37130 ft | 463 kts | 271° |
| 2026-04-07 11:30 | 48.89575 | -1.41385 | 37107 ft | 463 kts | 271° |
| 2026-04-07 11:30 | 48.90003 | -1.51116 | 37105 ft | 463 kts | 271° |
| 2026-04-07 11:31 | 48.90427 | -1.60886 | 37103 ft | 463 kts | 271° |
| 2026-04-07 11:31 | 48.90813 | -1.70664 | 37099 ft | 462 kts | 268° |
| 2026-04-07 11:32 | 48.90213 | -1.80309 | 37096 ft | 457 kts | 255° |
| 2026-04-07 11:32 | 48.88684 | -1.89671 | 37089 ft | 456 kts | 253° |
| 2026-04-07 11:33 | 48.87166 | -1.99033 | 37085 ft | 456 kts | 253° |
| 2026-04-07 11:33 | 48.85643 | -2.08390 | 37086 ft | 456 kts | 253° |
| 2026-04-07 11:34 | 48.84107 | -2.17748 | 37079 ft | 456 kts | 253° |
| 2026-04-07 11:34 | 48.82576 | -2.27028 | 37086 ft | 456 kts | 253° |
| 2026-04-07 11:35 | 48.81027 | -2.36356 | 37081 ft | 455 kts | 253° |
| 2026-04-07 11:35 | 48.79471 | -2.45672 | 37068 ft | 455 kts | 253° |
| 2026-04-07 11:36 | 48.77907 | -2.54988 | 37065 ft | 455 kts | 252° |
| 2026-04-07 11:36 | 48.76338 | -2.64293 | 37072 ft | 455 kts | 252° |
| 2026-04-07 11:37 | 48.74776 | -2.73515 | 37069 ft | 454 kts | 252° |
| 2026-04-07 11:37 | 48.73199 | -2.82770 | 37052 ft | 454 kts | 252° |
| 2026-04-07 11:38 | 48.71757 | -2.92077 | 37050 ft | 455 kts | 258° |
| 2026-04-07 11:38 | 48.71533 | -3.01714 | 37042 ft | 461 kts | 271° |
| 2026-04-07 11:39 | 48.72250 | -3.11382 | 37048 ft | 462 kts | 273° |
| 2026-04-07 11:39 | 48.72942 | -3.21063 | 37046 ft | 462 kts | 272° |
| 2026-04-07 11:40 | 48.73612 | -3.30693 | 37047 ft | 462 kts | 272° |
| 2026-04-07 11:40 | 48.74279 | -3.40386 | 37048 ft | 462 kts | 272° |
| 2026-04-07 11:41 | 48.74939 | -3.50087 | 37064 ft | 462 kts | 272° |
| 2026-04-07 11:41 | 48.75592 | -3.59784 | 37049 ft | 463 kts | 272° |
| 2026-04-07 11:42 | 48.76231 | -3.69424 | 37042 ft | 462 kts | 272° |
| 2026-04-07 11:42 | 48.76867 | -3.79137 | 37019 ft | 462 kts | 272° |
| 2026-04-07 11:43 | 48.77494 | -3.88848 | 37018 ft | 462 kts | 272° |
| 2026-04-07 11:43 | 48.78009 | -3.96908 | 37019 ft | 462 kts | 272° |
| 2026-04-07 11:44 | 48.78621 | -4.06609 | 37022 ft | 462 kts | 272° |
| 2026-04-07 11:44 | 48.79225 | -4.16330 | 37031 ft | 462 kts | 271° |
| 2026-04-07 11:45 | 48.79820 | -4.26035 | 37030 ft | 462 kts | 271° |
| 2026-04-07 11:45 | 48.80407 | -4.35741 | 37028 ft | 462 kts | 271° |
| 2026-04-07 11:46 | 48.80984 | -4.45404 | 37032 ft | 463 kts | 271° |
| 2026-04-07 11:46 | 48.81556 | -4.55131 | 37028 ft | 463 kts | 271° |
| 2026-04-07 11:47 | 48.82119 | -4.64864 | 37031 ft | 462 kts | 271° |
| 2026-04-07 11:47 | 48.82674 | -4.74591 | 37039 ft | 462 kts | 271° |
| 2026-04-07 11:48 | 48.83218 | -4.84263 | 37039 ft | 462 kts | 271° |
| 2026-04-07 11:48 | 48.83758 | -4.93997 | 37033 ft | 462 kts | 271° |
| 2026-04-07 11:49 | 48.84288 | -5.03726 | 37035 ft | 462 kts | 271° |
| 2026-04-07 11:49 | 48.84810 | -5.13456 | 37033 ft | 462 kts | 271° |
| 2026-04-07 11:50 | 48.85238 | -5.21548 | 37035 ft | 462 kts | 270° |
| 2026-04-07 11:50 | 48.85674 | -5.29880 | 37026 ft | 463 kts | 270° |
| 2026-04-07 11:51 | 48.86175 | -5.39633 | 37028 ft | 463 kts | 270° |
| 2026-04-07 11:51 | 48.86667 | -5.49389 | 37036 ft | 463 kts | 270° |
| 2026-04-07 11:52 | 48.87152 | -5.59155 | 37029 ft | 463 kts | 270° |
| 2026-04-07 11:52 | 48.87629 | -5.68923 | 37024 ft | 463 kts | 270° |
| 2026-04-07 11:53 | 48.88095 | -5.78642 | 37019 ft | 464 kts | 270° |
| 2026-04-07 11:53 | 48.88557 | -5.88436 | 37022 ft | 465 kts | 270° |
| 2026-04-07 11:54 | 48.88328 | -5.98120 | 37008 ft | 455 kts | 252° |
| 2026-04-07 11:54 | 48.85856 | -6.06785 | 37017 ft | 444 kts | 232° |
| 2026-04-07 11:55 | 48.82443 | -6.14610 | 37027 ft | 445 kts | 233° |
| 2026-04-07 11:55 | 48.79061 | -6.22487 | 37021 ft | 445 kts | 233° |
| 2026-04-07 11:56 | 48.75673 | -6.30349 | 37020 ft | 445 kts | 233° |
| 2026-04-07 11:56 | 48.72299 | -6.38146 | 37020 ft | 445 kts | 233° |
| 2026-04-07 11:57 | 48.68897 | -6.45983 | 37017 ft | 445 kts | 233° |
| 2026-04-07 11:57 | 48.65487 | -6.53814 | 37039 ft | 445 kts | 233° |
| 2026-04-07 11:58 | 48.62073 | -6.61634 | 37026 ft | 445 kts | 233° |
| 2026-04-07 11:58 | 48.58659 | -6.69430 | 37023 ft | 444 kts | 233° |
| 2026-04-07 11:59 | 48.55244 | -6.77205 | 37022 ft | 444 kts | 233° |
| 2026-04-07 11:59 | 48.51848 | -6.84917 | 37020 ft | 444 kts | 233° |
| 2026-04-07 12:00 | 48.48425 | -6.92664 | 37044 ft | 443 kts | 233° |
| 2026-04-07 12:00 | 48.44990 | -7.00421 | 37016 ft | 444 kts | 232° |
| 2026-04-07 12:01 | 48.41547 | -7.08171 | 37003 ft | 446 kts | 232° |
| 2026-04-07 12:01 | 48.38091 | -7.15926 | 37010 ft | 446 kts | 232° |
| 2026-04-07 12:02 | 48.34646 | -7.23638 | 37014 ft | 447 kts | 232° |
| 2026-04-07 12:02 | 48.31171 | -7.31393 | 37041 ft | 447 kts | 232° |
| 2026-04-07 12:03 | 48.27683 | -7.39156 | 37020 ft | 448 kts | 232° |
| 2026-04-07 12:03 | 48.24192 | -7.46903 | 37019 ft | 448 kts | 232° |
| 2026-04-07 12:04 | 48.20692 | -7.54649 | 37021 ft | 448 kts | 232° |
| 2026-04-07 12:04 | 48.17184 | -7.62389 | 37016 ft | 449 kts | 232° |
| 2026-04-07 12:05 | 48.13671 | -7.70119 | 37048 ft | 449 kts | 232° |
| 2026-04-07 12:05 | 48.10172 | -7.77798 | 37031 ft | 449 kts | 232° |
| 2026-04-07 12:06 | 48.06652 | -7.85499 | 37023 ft | 448 kts | 232° |
| 2026-04-07 12:06 | 48.03140 | -7.93196 | 37018 ft | 448 kts | 234° |
| 2026-04-07 12:07 | 48.00632 | -8.01806 | 37013 ft | 458 kts | 252° |
| 2026-04-07 12:07 | 47.99984 | -8.11313 | 37003 ft | 468 kts | 266° |
| 2026-04-07 12:08 | 48.00052 | -8.21048 | 37003 ft | 469 kts | 265° |
| 2026-04-07 12:08 | 48.00069 | -8.30789 | 36998 ft | 469 kts | 265° |
| 2026-04-07 12:09 | 48.00069 | -8.40558 | 37138 ft | 470 kts | 265° |
| 2026-04-07 12:09 | 48.00066 | -8.45448 | 37245 ft | 470 kts | 265° |
| 2026-04-07 12:09 | 48.00062 | -8.50271 | 37354 ft | 470 kts | 265° |
| 2026-04-07 12:10 | 48.00056 | -8.55156 | 37495 ft | 470 kts | 265° |
| 2026-04-07 12:10 | 48.00048 | -8.60038 | 37610 ft | 470 kts | 265° |
| 2026-04-07 12:10 | 48.00024 | -8.69805 | 37815 ft | 470 kts | 265° |
| 2026-04-07 12:11 | 47.99888 | -8.74674 | 37919 ft | 467 kts | 260° |
| 2026-04-07 12:11 | 47.99477 | -8.79467 | 37988 ft | 464 kts | 255° |
| 2026-04-07 12:11 | 47.98254 | -8.88917 | 37993 ft | 462 kts | 255° |
| 2026-04-07 12:12 | 47.97070 | -8.98287 | 37996 ft | 463 kts | 255° |
| 2026-04-07 12:12 | 47.95887 | -9.07735 | 38014 ft | 462 kts | 255° |
| 2026-04-07 12:13 | 47.94701 | -9.17157 | 38021 ft | 462 kts | 255° |
| 2026-04-07 12:13 | 47.93501 | -9.26616 | 38014 ft | 463 kts | 255° |
| 2026-04-07 12:14 | 47.92295 | -9.36051 | 38036 ft | 463 kts | 254° |
| 2026-04-07 12:14 | 47.91080 | -9.45476 | 38006 ft | 463 kts | 254° |
| 2026-04-07 12:15 | 47.89853 | -9.54893 | 38005 ft | 463 kts | 254° |
| 2026-04-07 12:15 | 47.88618 | -9.64309 | 38004 ft | 462 kts | 254° |
| 2026-04-07 12:16 | 47.87376 | -9.73703 | 38001 ft | 462 kts | 254° |
| 2026-04-07 12:16 | 47.86133 | -9.83067 | 38000 ft | 462 kts | 253° |
| 2026-04-07 12:17 | 47.84876 | -9.92454 | 37997 ft | 462 kts | 253° |
| 2026-04-07 12:17 | 47.83610 | -10.01843 | 37997 ft | 462 kts | 253° |
| 2026-04-07 12:18 | 47.82339 | -10.11208 | 37990 ft | 461 kts | 253° |
| 2026-04-07 12:18 | 47.81070 | -10.20516 | 37986 ft | 462 kts | 253° |
| 2026-04-07 12:19 | 47.79780 | -10.29896 | 37998 ft | 464 kts | 253° |
| 2026-04-07 12:19 | 47.78482 | -10.39289 | 37987 ft | 461 kts | 253° |
| 2026-04-07 12:20 | 47.77183 | -10.48627 | 37987 ft | 462 kts | 253° |
| 2026-04-07 12:20 | 47.75874 | -10.57973 | 38014 ft | 462 kts | 252° |
| 2026-04-07 12:21 | 47.74556 | -10.67325 | 37991 ft | 462 kts | 252° |
| 2026-04-07 12:21 | 47.73238 | -10.76626 | 37976 ft | 462 kts | 252° |
| 2026-04-07 12:22 | 47.71906 | -10.85960 | 37978 ft | 462 kts | 252° |
| 2026-04-07 12:22 | 47.70566 | -10.95291 | 37982 ft | 462 kts | 252° |
| 2026-04-07 12:23 | 47.69220 | -11.04612 | 37981 ft | 462 kts | 252° |
| 2026-04-07 12:23 | 47.67866 | -11.13933 | 37974 ft | 462 kts | 252° |
| 2026-04-07 12:24 | 47.66505 | -11.23245 | 37974 ft | 461 kts | 252° |
| 2026-04-07 12:24 | 47.65138 | -11.32543 | 37970 ft | 461 kts | 252° |
| 2026-04-07 12:25 | 47.63761 | -11.41838 | 37979 ft | 461 kts | 252° |
| 2026-04-07 12:25 | 47.62381 | -11.51107 | 37978 ft | 461 kts | 252° |
| 2026-04-07 12:26 | 47.60991 | -11.60386 | 37975 ft | 460 kts | 252° |
| 2026-04-07 12:26 | 47.59606 | -11.69582 | 37972 ft | 460 kts | 252° |
| 2026-04-07 12:27 | 47.58204 | -11.78838 | 37987 ft | 460 kts | 252° |
| 2026-04-07 12:27 | 47.56790 | -11.88098 | 37973 ft | 460 kts | 252° |
| 2026-04-07 12:28 | 47.55374 | -11.97345 | 37970 ft | 460 kts | 252° |
| 2026-04-07 12:29 | 47.53244 | -12.11147 | 37975 ft | 461 kts | 252° |
| 2026-04-07 12:29 | 47.51807 | -12.20381 | 37994 ft | 461 kts | 252° |
| 2026-04-07 12:30 | 47.50358 | -12.29627 | 37974 ft | 461 kts | 252° |
| 2026-04-07 12:30 | 47.48906 | -12.38869 | 37975 ft | 461 kts | 252° |
| 2026-04-07 12:31 | 47.47443 | -12.48122 | 37977 ft | 462 kts | 252° |
| 2026-04-07 12:31 | 47.45974 | -12.57360 | 37976 ft | 462 kts | 252° |
| 2026-04-07 12:32 | 47.44742 | -12.65046 | 37988 ft | 462 kts | 253° |
| 2026-04-07 12:32 | 47.43256 | -12.74296 | 37981 ft | 463 kts | 253° |
| 2026-04-07 12:33 | 47.41520 | -12.85041 | 37981 ft | 463 kts | 253° |
| 2026-04-07 12:33 | 47.40260 | -12.92791 | 37989 ft | 463 kts | 253° |
| 2026-04-07 12:34 | 47.38762 | -13.01965 | 37991 ft | 463 kts | 253° |
| 2026-04-07 12:34 | 47.37241 | -13.11222 | 37994 ft | 463 kts | 252° |
| 2026-04-07 12:35 | 47.35716 | -13.20456 | 37994 ft | 463 kts | 252° |
| 2026-04-07 12:35 | 47.34183 | -13.29688 | 38003 ft | 463 kts | 252° |
| 2026-04-07 12:36 | 47.32642 | -13.38915 | 38031 ft | 463 kts | 252° |
| 2026-04-07 12:36 | 47.31090 | -13.48143 | 38005 ft | 464 kts | 252° |
| 2026-04-07 12:37 | 47.29542 | -13.57320 | 38010 ft | 464 kts | 252° |
| 2026-04-07 12:37 | 47.27976 | -13.66548 | 38014 ft | 465 kts | 252° |
| 2026-04-07 12:38 | 47.26397 | -13.75801 | 38018 ft | 465 kts | 252° |
| 2026-04-07 12:38 | 47.24812 | -13.85042 | 38008 ft | 466 kts | 252° |
| 2026-04-07 12:39 | 47.23221 | -13.94297 | 38024 ft | 466 kts | 252° |
| 2026-04-07 12:39 | 47.21621 | -14.03559 | 38018 ft | 467 kts | 252° |
| 2026-04-07 12:40 | 47.20020 | -14.12757 | 38027 ft | 466 kts | 252° |
| 2026-04-07 12:40 | 47.18390 | -14.22007 | 38035 ft | 468 kts | 252° |
| 2026-04-07 12:41 | 47.16754 | -14.31266 | 38027 ft | 468 kts | 253° |
| 2026-04-07 12:41 | 47.15122 | -14.40502 | 38046 ft | 469 kts | 252° |
| 2026-04-07 12:42 | 47.13475 | -14.49781 | 38058 ft | 469 kts | 252° |
| 2026-04-07 12:42 | 47.11812 | -14.59066 | 38057 ft | 469 kts | 254° |
| 2026-04-07 12:43 | 47.10149 | -14.68327 | 38066 ft | 469 kts | 253° |
| 2026-04-07 12:43 | 47.08480 | -14.77580 | 38075 ft | 469 kts | 253° |
| 2026-04-07 12:44 | 47.06809 | -14.86781 | 38067 ft | 469 kts | 253° |
| 2026-04-07 12:44 | 47.05122 | -14.96024 | 38086 ft | 469 kts | 255° |
| 2026-04-07 12:45 | 47.03423 | -15.05269 | 38081 ft | 470 kts | 255° |
| 2026-04-07 12:45 | 47.01720 | -15.14529 | 38087 ft | 470 kts | 255° |
| 2026-04-07 12:46 | 47.00017 | -15.23727 | 38090 ft | 470 kts | 255° |
| 2026-04-07 12:46 | 46.98296 | -15.32976 | 38105 ft | 470 kts | 255° |
| 2026-04-07 12:47 | 46.96553 | -15.42262 | 38097 ft | 473 kts | 256° |
| 2026-04-07 12:47 | 46.94806 | -15.51558 | 38101 ft | 474 kts | 255° |
| 2026-04-07 12:48 | 46.93045 | -15.60883 | 38104 ft | 475 kts | 256° |
| 2026-04-07 12:48 | 46.91284 | -15.70160 | 38104 ft | 476 kts | 255° |
| 2026-04-07 12:49 | 46.89836 | -15.77731 | 38099 ft | 477 kts | 256° |
| 2026-04-07 12:49 | 46.88044 | -15.87092 | 38092 ft | 479 kts | 257° |
| 2026-04-07 12:50 | 46.86240 | -15.96477 | 38113 ft | 480 kts | 256° |
| 2026-04-07 12:50 | 46.84424 | -16.05869 | 38130 ft | 481 kts | 255° |
| 2026-04-07 12:51 | 46.82591 | -16.15257 | 38135 ft | 480 kts | 256° |
| 2026-04-07 12:51 | 46.80765 | -16.24591 | 38147 ft | 481 kts | 257° |
| 2026-04-07 12:52 | 46.78930 | -16.33969 | 38157 ft | 480 kts | 257° |
| 2026-04-07 12:52 | 46.77080 | -16.43352 | 38154 ft | 480 kts | 258° |
| 2026-04-07 12:53 | 46.75228 | -16.52719 | 38170 ft | 480 kts | 257° |
| 2026-04-07 12:53 | 46.73369 | -16.62050 | 38156 ft | 479 kts | 257° |
| 2026-04-07 12:54 | 46.71505 | -16.71368 | 38154 ft | 479 kts | 257° |
| 2026-04-07 12:54 | 46.69635 | -16.80666 | 38157 ft | 478 kts | 257° |
| 2026-04-07 12:55 | 46.67772 | -16.89896 | 38160 ft | 478 kts | 257° |
| 2026-04-07 12:55 | 46.65889 | -16.99179 | 38168 ft | 478 kts | 256° |
| 2026-04-07 12:56 | 46.63998 | -17.08451 | 38171 ft | 478 kts | 257° |
| 2026-04-07 12:56 | 46.62099 | -17.17724 | 38169 ft | 478 kts | 257° |
| 2026-04-07 12:57 | 46.60194 | -17.26987 | 38193 ft | 477 kts | 257° |
| 2026-04-07 12:57 | 46.58284 | -17.36223 | 38184 ft | 477 kts | 257° |
| 2026-04-07 12:58 | 46.56379 | -17.45396 | 38188 ft | 476 kts | 257° |
| 2026-04-07 12:58 | 46.54458 | -17.54606 | 38192 ft | 476 kts | 257° |
| 2026-04-07 12:59 | 46.52528 | -17.63804 | 38218 ft | 474 kts | 257° |
| 2026-04-07 12:59 | 46.50598 | -17.72969 | 38216 ft | 473 kts | 257° |
| 2026-04-07 13:00 | 46.48668 | -17.82100 | 38209 ft | 473 kts | 257° |
| 2026-04-07 13:00 | 46.47059 | -17.89680 | 38218 ft | 472 kts | 257° |
| 2026-04-07 13:01 | 46.45112 | -17.98811 | 38196 ft | 471 kts | 258° |
| 2026-04-07 13:01 | 46.43167 | -18.07877 | 38213 ft | 471 kts | 258° |
| 2026-04-07 13:02 | 46.41232 | -18.16886 | 38219 ft | 471 kts | 258° |
| 2026-04-07 13:02 | 46.39274 | -18.25950 | 38218 ft | 471 kts | 258° |
| 2026-04-07 13:03 | 46.37310 | -18.35000 | 38199 ft | 471 kts | 258° |
| 2026-04-07 13:03 | 46.35331 | -18.44073 | 38214 ft | 472 kts | 258° |
| 2026-04-07 13:04 | 46.33348 | -18.53142 | 38225 ft | 473 kts | 258° |
| 2026-04-07 13:04 | 46.31353 | -18.62220 | 38231 ft | 474 kts | 258° |
| 2026-04-07 13:05 | 46.29359 | -18.71253 | 38236 ft | 474 kts | 258° |
| 2026-04-07 13:05 | 46.27342 | -18.80334 | 38252 ft | 473 kts | 258° |
| 2026-04-07 13:06 | 46.25325 | -18.89390 | 38254 ft | 473 kts | 258° |
| 2026-04-07 13:06 | 46.23560 | -18.97288 | 38253 ft | 472 kts | 258° |
| 2026-04-07 13:07 | 46.21547 | -19.06255 | 38254 ft | 472 kts | 258° |
| 2026-04-07 13:07 | 46.19515 | -19.15252 | 38284 ft | 470 kts | 259° |
| 2026-04-07 13:08 | 46.17492 | -19.24202 | 38277 ft | 469 kts | 259° |
| 2026-04-07 13:08 | 46.15463 | -19.33130 | 38281 ft | 468 kts | 259° |
| 2026-04-07 13:09 | 46.13430 | -19.42042 | 38275 ft | 467 kts | 258° |
| 2026-04-07 13:09 | 46.11390 | -19.50926 | 38286 ft | 465 kts | 259° |
| 2026-04-07 13:10 | 46.09371 | -19.59725 | 38268 ft | 465 kts | 259° |
| 2026-04-07 13:10 | 46.07755 | -19.66753 | 38272 ft | 465 kts | 259° |
| 2026-04-07 13:11 | 46.05712 | -19.75601 | 38274 ft | 465 kts | 259° |
| 2026-04-07 13:11 | 46.03675 | -19.84382 | 38298 ft | 463 kts | 259° |
| 2026-04-07 13:12 | 46.01581 | -19.93150 | 38286 ft | 466 kts | 256° |
| 2026-04-07 13:12 | 45.98689 | -20.01580 | 38292 ft | 474 kts | 247° |
| 2026-04-07 13:13 | 45.94829 | -20.09395 | 38285 ft | 484 kts | 238° |
| 2026-04-07 13:13 | 45.90631 | -20.16944 | 38325 ft | 480 kts | 240° |
| 2026-04-07 13:14 | 45.86516 | -20.24422 | 38305 ft | 479 kts | 240° |
| 2026-04-07 13:14 | 45.82379 | -20.31914 | 38280 ft | 479 kts | 239° |
| 2026-04-07 13:15 | 45.78236 | -20.39379 | 38277 ft | 478 kts | 239° |
| 2026-04-07 13:15 | 45.74087 | -20.46828 | 38276 ft | 478 kts | 239° |
| 2026-04-07 13:16 | 45.69931 | -20.54270 | 38277 ft | 479 kts | 239° |
| 2026-04-07 13:16 | 45.65760 | -20.61720 | 38283 ft | 480 kts | 239° |
| 2026-04-07 13:17 | 45.61604 | -20.69121 | 38284 ft | 481 kts | 239° |
| 2026-04-07 13:17 | 45.57419 | -20.76549 | 38322 ft | 479 kts | 239° |
| 2026-04-07 13:18 | 45.53235 | -20.83961 | 38316 ft | 478 kts | 239° |
| 2026-04-07 13:18 | 45.49104 | -20.91263 | 38318 ft | 478 kts | 239° |
| 2026-04-07 13:19 | 45.44949 | -20.98587 | 38315 ft | 478 kts | 239° |
| 2026-04-07 13:19 | 45.40776 | -21.05921 | 38340 ft | 476 kts | 239° |
| 2026-04-07 13:20 | 45.36603 | -21.13236 | 38320 ft | 476 kts | 239° |
| 2026-04-07 13:20 | 45.32427 | -21.20540 | 38324 ft | 476 kts | 239° |
| 2026-04-07 13:21 | 45.28276 | -21.27782 | 38325 ft | 476 kts | 239° |
| 2026-04-07 13:21 | 45.24093 | -21.35058 | 38320 ft | 475 kts | 239° |
| 2026-04-07 13:22 | 45.19913 | -21.42312 | 38333 ft | 474 kts | 239° |
| 2026-04-07 13:22 | 45.15735 | -21.49544 | 38333 ft | 474 kts | 239° |
| 2026-04-07 13:23 | 45.12260 | -21.55546 | 38333 ft | 474 kts | 239° |
| 2026-04-07 13:23 | 45.08074 | -21.62757 | 38317 ft | 474 kts | 239° |
| 2026-04-07 13:24 | 45.03886 | -21.69956 | 38329 ft | 474 kts | 239° |
| 2026-04-07 13:24 | 44.99687 | -21.77155 | 38340 ft | 475 kts | 239° |
| 2026-04-07 13:25 | 44.95474 | -21.84357 | 38342 ft | 475 kts | 239° |
| 2026-04-07 13:25 | 44.91292 | -21.91488 | 38328 ft | 475 kts | 239° |
| 2026-04-07 13:26 | 44.87076 | -21.98661 | 38341 ft | 475 kts | 239° |
| 2026-04-07 13:26 | 44.82850 | -22.05832 | 38358 ft | 475 kts | 239° |
| 2026-04-07 13:27 | 44.78612 | -22.13005 | 38333 ft | 476 kts | 239° |
| 2026-04-07 13:27 | 44.74372 | -22.20162 | 38324 ft | 476 kts | 239° |
| 2026-04-07 13:28 | 44.70144 | -22.27284 | 38348 ft | 477 kts | 239° |
| 2026-04-07 13:28 | 44.65879 | -22.34448 | 38350 ft | 478 kts | 239° |
| 2026-04-07 13:29 | 44.61603 | -22.41613 | 38353 ft | 478 kts | 238° |
| 2026-04-07 13:29 | 44.57353 | -22.48715 | 38354 ft | 478 kts | 239° |
| 2026-04-07 13:30 | 44.53064 | -22.55865 | 38354 ft | 479 kts | 239° |
| 2026-04-07 13:30 | 44.48762 | -22.63018 | 38362 ft | 480 kts | 238° |
| 2026-04-07 13:31 | 44.44457 | -22.70159 | 38328 ft | 480 kts | 239° |
| 2026-04-07 13:31 | 44.40139 | -22.77303 | 38352 ft | 481 kts | 238° |
| 2026-04-07 13:32 | 44.35811 | -22.84448 | 38361 ft | 482 kts | 238° |
| 2026-04-07 13:32 | 44.31471 | -22.91592 | 38367 ft | 482 kts | 238° |
| 2026-04-07 13:33 | 44.27146 | -22.98694 | 38362 ft | 482 kts | 238° |
| 2026-04-07 13:33 | 44.20624 | -23.09371 | 38373 ft | 482 kts | 238° |
| 2026-04-07 13:34 | 44.16267 | -23.16481 | 38373 ft | 482 kts | 238° |
| 2026-04-07 13:34 | 44.11925 | -23.23550 | 38368 ft | 483 kts | 238° |
| 2026-04-07 13:35 | 44.07551 | -23.30654 | 38373 ft | 483 kts | 238° |
| 2026-04-07 13:35 | 44.03171 | -23.37749 | 38371 ft | 483 kts | 238° |
| 2026-04-07 13:36 | 43.98780 | -23.44843 | 38379 ft | 484 kts | 238° |
| 2026-04-07 13:36 | 43.94391 | -23.51917 | 38385 ft | 482 kts | 238° |
| 2026-04-07 13:37 | 43.90031 | -23.58926 | 38377 ft | 482 kts | 238° |
| 2026-04-07 13:37 | 43.85649 | -23.65956 | 38376 ft | 482 kts | 238° |
| 2026-04-07 13:38 | 43.81257 | -23.72986 | 38373 ft | 483 kts | 238° |
| 2026-04-07 13:38 | 43.76858 | -23.80003 | 38388 ft | 481 kts | 238° |
| 2026-04-07 13:39 | 43.72467 | -23.86996 | 38390 ft | 481 kts | 238° |
| 2026-04-07 13:39 | 43.68102 | -23.93930 | 38385 ft | 480 kts | 238° |
| 2026-04-07 13:40 | 43.63707 | -24.00894 | 38354 ft | 480 kts | 238° |
| 2026-04-07 13:40 | 43.59321 | -24.07824 | 38395 ft | 478 kts | 238° |
| 2026-04-07 13:41 | 43.54969 | -24.14688 | 38392 ft | 477 kts | 238° |
| 2026-04-07 13:41 | 43.50584 | -24.21589 | 38379 ft | 478 kts | 238° |
| 2026-04-07 13:42 | 43.46195 | -24.28476 | 38391 ft | 476 kts | 238° |
| 2026-04-07 13:42 | 43.41817 | -24.35330 | 38390 ft | 476 kts | 238° |
| 2026-04-07 13:43 | 43.37459 | -24.42137 | 38393 ft | 476 kts | 238° |
| 2026-04-07 13:43 | 43.33073 | -24.48972 | 38391 ft | 476 kts | 238° |
| 2026-04-07 13:44 | 43.28689 | -24.55786 | 38403 ft | 475 kts | 238° |
| 2026-04-07 13:44 | 43.24304 | -24.62588 | 38406 ft | 475 kts | 238° |
| 2026-04-07 13:45 | 43.19945 | -24.69334 | 38393 ft | 476 kts | 238° |
| 2026-04-07 13:45 | 43.15547 | -24.76123 | 38374 ft | 476 kts | 238° |
| 2026-04-07 13:46 | 43.11157 | -24.82885 | 38403 ft | 475 kts | 238° |
| 2026-04-07 13:46 | 43.06763 | -24.89643 | 38404 ft | 475 kts | 238° |
| 2026-04-07 13:47 | 43.02373 | -24.96383 | 38406 ft | 475 kts | 237° |
| 2026-04-07 13:47 | 42.97824 | -25.02975 | 38402 ft | 479 kts | 233° |
| 2026-04-07 13:48 | 42.93126 | -25.09322 | 38411 ft | 478 kts | 234° |
| 2026-04-07 13:48 | 42.88418 | -25.15753 | 38400 ft | 479 kts | 234° |
| 2026-04-07 13:49 | 42.83700 | -25.22177 | 38410 ft | 480 kts | 234° |
| 2026-04-07 13:49 | 42.78971 | -25.28595 | 38426 ft | 479 kts | 233° |
| 2026-04-07 13:50 | 42.74242 | -25.34993 | 38435 ft | 479 kts | 233° |
| 2026-04-07 13:50 | 42.69502 | -25.41386 | 38436 ft | 480 kts | 233° |
| 2026-04-07 13:51 | 42.64755 | -25.47773 | 38387 ft | 480 kts | 233° |
| 2026-04-07 13:51 | 42.60011 | -25.54144 | 38409 ft | 480 kts | 233° |
| 2026-04-07 13:52 | 42.55287 | -25.60472 | 38421 ft | 480 kts | 233° |
| 2026-04-07 13:52 | 42.50529 | -25.66830 | 38426 ft | 480 kts | 233° |
| 2026-04-07 13:53 | 42.45759 | -25.73191 | 38426 ft | 480 kts | 233° |
| 2026-04-07 13:53 | 42.40989 | -25.79537 | 38427 ft | 481 kts | 232° |
| 2026-04-07 13:54 | 42.36237 | -25.85845 | 38432 ft | 481 kts | 233° |
| 2026-04-07 13:54 | 42.31450 | -25.92186 | 38408 ft | 481 kts | 232° |
| 2026-04-07 13:55 | 42.26663 | -25.98515 | 38428 ft | 482 kts | 232° |
| 2026-04-07 13:55 | 42.21863 | -26.04842 | 38436 ft | 482 kts | 232° |
| 2026-04-07 13:56 | 42.17054 | -26.11168 | 38442 ft | 482 kts | 232° |
| 2026-04-07 13:56 | 42.12282 | -26.17434 | 38436 ft | 482 kts | 232° |
| 2026-04-07 13:57 | 42.07469 | -26.23738 | 38440 ft | 482 kts | 232° |
| 2026-04-07 13:57 | 42.02657 | -26.30027 | 38443 ft | 482 kts | 232° |
| 2026-04-07 13:58 | 41.97835 | -26.36314 | 38424 ft | 482 kts | 231° |
| 2026-04-07 13:58 | 41.93021 | -26.42577 | 38451 ft | 482 kts | 231° |
| 2026-04-07 13:59 | 41.88198 | -26.48838 | 38453 ft | 482 kts | 231° |
| 2026-04-07 13:59 | 41.83372 | -26.55089 | 38454 ft | 482 kts | 231° |
| 2026-04-07 14:00 | 41.78553 | -26.61318 | 38455 ft | 481 kts | 231° |
| 2026-04-07 14:00 | 41.73763 | -26.67495 | 38463 ft | 480 kts | 231° |
| 2026-04-07 14:01 | 41.68941 | -26.73700 | 38458 ft | 481 kts | 231° |
| 2026-04-07 14:01 | 41.64117 | -26.79894 | 38453 ft | 480 kts | 231° |
| 2026-04-07 14:02 | 41.59291 | -26.86077 | 38455 ft | 481 kts | 231° |
| 2026-04-07 14:02 | 41.54461 | -26.92250 | 38465 ft | 480 kts | 230° |
| 2026-04-07 14:03 | 41.49641 | -26.98399 | 38460 ft | 479 kts | 230° |
| 2026-04-07 14:03 | 41.44816 | -27.04539 | 38464 ft | 479 kts | 230° |
| 2026-04-07 14:04 | 41.40022 | -27.10629 | 38466 ft | 479 kts | 230° |
| 2026-04-07 14:04 | 41.35188 | -27.16755 | 38468 ft | 479 kts | 230° |
| 2026-04-07 14:05 | 41.30361 | -27.22861 | 38480 ft | 479 kts | 230° |
| 2026-04-07 14:05 | 41.25532 | -27.28954 | 38459 ft | 479 kts | 230° |
| 2026-04-07 14:06 | 41.20693 | -27.35048 | 38444 ft | 479 kts | 230° |
| 2026-04-07 14:06 | 41.15883 | -27.41092 | 38452 ft | 479 kts | 230° |
| 2026-04-07 14:07 | 41.11037 | -27.47167 | 38485 ft | 479 kts | 230° |
| 2026-04-07 14:07 | 41.06190 | -27.53234 | 38481 ft | 479 kts | 229° |
| 2026-04-07 14:08 | 41.01347 | -27.59279 | 38475 ft | 479 kts | 229° |
| 2026-04-07 14:08 | 40.96493 | -27.65327 | 38476 ft | 479 kts | 229° |
| 2026-04-07 14:09 | 40.91633 | -27.71370 | 38477 ft | 479 kts | 229° |
| 2026-04-07 14:09 | 40.86799 | -27.77367 | 38485 ft | 479 kts | 229° |
| 2026-04-07 14:10 | 40.81937 | -27.83387 | 38483 ft | 478 kts | 228° |
| 2026-04-07 14:10 | 40.77076 | -27.89393 | 38492 ft | 478 kts | 228° |
| 2026-04-07 14:11 | 40.72209 | -27.95392 | 38494 ft | 478 kts | 228° |
| 2026-04-07 14:11 | 40.67372 | -28.01342 | 38492 ft | 478 kts | 228° |
| 2026-04-07 14:12 | 40.62500 | -28.07326 | 38496 ft | 478 kts | 228° |
| 2026-04-07 14:12 | 40.57626 | -28.13299 | 38492 ft | 478 kts | 227° |
| 2026-04-07 14:13 | 40.52762 | -28.19253 | 38492 ft | 478 kts | 227° |
| 2026-04-07 14:13 | 40.47885 | -28.25207 | 38498 ft | 478 kts | 227° |
| 2026-04-07 14:14 | 40.43830 | -28.30144 | 38503 ft | 478 kts | 227° |
| 2026-04-07 14:14 | 40.38952 | -28.36074 | 38508 ft | 478 kts | 227° |
| 2026-04-07 14:15 | 40.34064 | -28.42004 | 38498 ft | 478 kts | 227° |
| 2026-04-07 14:15 | 40.29171 | -28.47924 | 38505 ft | 478 kts | 227° |
| 2026-04-07 14:16 | 40.24302 | -28.53804 | 38509 ft | 479 kts | 227° |
| 2026-04-07 14:16 | 40.19396 | -28.59717 | 38512 ft | 479 kts | 227° |
| 2026-04-07 14:17 | 40.14494 | -28.65612 | 38518 ft | 479 kts | 227° |
| 2026-04-07 14:17 | 40.09590 | -28.71499 | 38524 ft | 479 kts | 226° |
| 2026-04-07 14:18 | 40.04678 | -28.77384 | 38518 ft | 479 kts | 226° |
| 2026-04-07 14:18 | 39.99791 | -28.83224 | 38522 ft | 479 kts | 226° |
| 2026-04-07 14:19 | 39.94875 | -28.89087 | 38527 ft | 479 kts | 226° |
| 2026-04-07 14:19 | 39.89948 | -28.94953 | 38528 ft | 479 kts | 226° |
| 2026-04-07 14:20 | 39.85031 | -29.00795 | 38530 ft | 479 kts | 226° |
| 2026-04-07 14:20 | 39.80105 | -29.06635 | 38519 ft | 479 kts | 226° |
| 2026-04-07 14:21 | 39.75179 | -29.12465 | 38529 ft | 478 kts | 226° |
| 2026-04-07 14:21 | 39.70287 | -29.18241 | 38537 ft | 478 kts | 226° |
| 2026-04-07 14:22 | 39.65351 | -29.24058 | 38540 ft | 478 kts | 226° |
| 2026-04-07 14:22 | 39.60415 | -29.29865 | 38544 ft | 478 kts | 225° |
| 2026-04-07 14:23 | 39.55478 | -29.35660 | 38534 ft | 478 kts | 225° |
| 2026-04-07 14:23 | 39.50566 | -29.41414 | 38528 ft | 478 kts | 225° |
| 2026-04-07 14:24 | 39.45629 | -29.47186 | 38541 ft | 478 kts | 225° |
| 2026-04-07 14:24 | 39.40685 | -29.52955 | 38547 ft | 478 kts | 225° |
| 2026-04-07 14:25 | 39.35736 | -29.58719 | 38550 ft | 478 kts | 225° |
| 2026-04-07 14:25 | 39.30810 | -29.64443 | 38546 ft | 478 kts | 225° |
| 2026-04-07 14:26 | 39.25852 | -29.70195 | 38547 ft | 478 kts | 225° |
| 2026-04-07 14:26 | 39.20892 | -29.75937 | 38551 ft | 478 kts | 225° |
| 2026-04-07 14:27 | 39.15939 | -29.81659 | 38552 ft | 478 kts | 225° |
| 2026-04-07 14:27 | 39.10986 | -29.87376 | 38551 ft | 478 kts | 225° |
| 2026-04-07 14:28 | 39.06035 | -29.93082 | 38550 ft | 478 kts | 225° |
| 2026-04-07 14:28 | 39.01074 | -29.98787 | 38558 ft | 478 kts | 225° |
| 2026-04-07 14:29 | 38.96291 | -30.04696 | 38552 ft | 475 kts | 230° |
| 2026-04-07 14:29 | 38.91812 | -30.10943 | 38555 ft | 475 kts | 230° |
| 2026-04-07 14:30 | 38.87321 | -30.17100 | 38561 ft | 475 kts | 230° |
| 2026-04-07 14:30 | 38.82758 | -30.23260 | 38561 ft | 476 kts | 229° |
| 2026-04-07 14:31 | 38.78185 | -30.29413 | 38554 ft | 476 kts | 229° |
| 2026-04-07 14:31 | 38.73607 | -30.35555 | 38559 ft | 476 kts | 229° |
| 2026-04-07 14:32 | 38.69058 | -30.41643 | 38565 ft | 476 kts | 229° |
| 2026-04-07 14:32 | 38.64537 | -30.47681 | 38563 ft | 476 kts | 229° |
| 2026-04-07 14:33 | 38.59956 | -30.53788 | 38566 ft | 476 kts | 229° |
| 2026-04-07 14:33 | 38.55369 | -30.59891 | 38565 ft | 476 kts | 229° |
| 2026-04-07 14:34 | 38.50780 | -30.65983 | 38567 ft | 476 kts | 229° |
| 2026-04-07 14:34 | 38.46187 | -30.72069 | 38566 ft | 475 kts | 229° |
| 2026-04-07 14:35 | 38.41596 | -30.78141 | 38571 ft | 475 kts | 229° |
| 2026-04-07 14:35 | 38.37026 | -30.84172 | 38570 ft | 475 kts | 229° |
| 2026-04-07 14:36 | 38.32431 | -30.90227 | 38573 ft | 475 kts | 229° |
| 2026-04-07 14:36 | 38.27825 | -30.96282 | 38572 ft | 475 kts | 229° |
| 2026-04-07 14:37 | 38.23217 | -31.02327 | 38577 ft | 475 kts | 229° |
| 2026-04-07 14:37 | 38.18608 | -31.08363 | 38575 ft | 475 kts | 229° |
| 2026-04-07 14:38 | 38.14028 | -31.14349 | 38572 ft | 475 kts | 229° |
| 2026-04-07 14:38 | 38.10940 | -31.18376 | 38576 ft | 475 kts | 229° |
| 2026-04-07 14:39 | 38.04171 | -31.27191 | 38576 ft | 475 kts | 229° |
| 2026-04-07 14:40 | 37.99575 | -31.33163 | 38577 ft | 475 kts | 229° |
| 2026-04-07 14:40 | 37.95071 | -31.39008 | 38579 ft | 475 kts | 229° |
| 2026-04-07 14:41 | 37.91686 | -31.43393 | 38581 ft | 475 kts | 229° |
| 2026-04-07 14:41 | 37.87058 | -31.49377 | 38573 ft | 475 kts | 229° |
| 2026-04-07 14:42 | 37.82428 | -31.55349 | 38562 ft | 475 kts | 229° |
| 2026-04-07 14:42 | 37.77800 | -31.61309 | 38576 ft | 475 kts | 229° |
| 2026-04-07 14:43 | 37.73164 | -31.67269 | 38596 ft | 475 kts | 229° |
| 2026-04-07 14:43 | 37.68528 | -31.73215 | 38591 ft | 475 kts | 229° |
| 2026-04-07 14:44 | 37.63922 | -31.79112 | 38591 ft | 475 kts | 229° |
| 2026-04-07 14:44 | 37.59276 | -31.85040 | 38590 ft | 474 kts | 230° |
| 2026-04-07 14:45 | 37.54639 | -31.90959 | 38586 ft | 474 kts | 230° |
| 2026-04-07 14:45 | 37.49995 | -31.96874 | 38590 ft | 474 kts | 230° |
| 2026-04-07 14:46 | 37.45389 | -32.02729 | 38591 ft | 474 kts | 230° |
| 2026-04-07 14:46 | 37.40745 | -32.08621 | 38586 ft | 473 kts | 230° |
| 2026-04-07 14:47 | 37.36105 | -32.14497 | 38601 ft | 472 kts | 230° |
| 2026-04-07 14:47 | 37.31472 | -32.20352 | 38595 ft | 472 kts | 230° |
| 2026-04-07 14:48 | 37.26838 | -32.26197 | 38589 ft | 471 kts | 230° |
| 2026-04-07 14:48 | 37.22207 | -32.32028 | 38599 ft | 471 kts | 230° |
| 2026-04-07 14:49 | 37.17608 | -32.37808 | 38592 ft | 470 kts | 230° |
| 2026-04-07 14:49 | 37.12979 | -32.43616 | 38601 ft | 470 kts | 230° |
| 2026-04-07 14:50 | 37.08357 | -32.49404 | 38602 ft | 470 kts | 230° |
| 2026-04-07 14:50 | 37.03733 | -32.55184 | 38601 ft | 470 kts | 230° |
| 2026-04-07 14:51 | 36.99099 | -32.60965 | 38598 ft | 470 kts | 230° |
| 2026-04-07 14:51 | 36.94506 | -32.66686 | 38605 ft | 469 kts | 230° |
| 2026-04-07 14:52 | 36.89886 | -32.72429 | 38595 ft | 468 kts | 230° |
| 2026-04-07 14:52 | 36.85271 | -32.78156 | 38593 ft | 468 kts | 230° |
| 2026-04-07 14:53 | 36.80646 | -32.83882 | 38601 ft | 467 kts | 230° |
| 2026-04-07 14:53 | 36.76021 | -32.89599 | 38588 ft | 467 kts | 229° |
| 2026-04-07 14:54 | 36.71438 | -32.95256 | 38607 ft | 466 kts | 229° |
| 2026-04-07 14:54 | 36.66817 | -33.00945 | 38605 ft | 466 kts | 229° |
| 2026-04-07 14:55 | 36.62207 | -33.06614 | 38611 ft | 465 kts | 229° |
| 2026-04-07 14:55 | 36.57601 | -33.12273 | 38607 ft | 465 kts | 229° |
| 2026-04-07 14:56 | 36.52994 | -33.17922 | 38611 ft | 464 kts | 229° |
| 2026-04-07 14:56 | 36.48421 | -33.23518 | 38610 ft | 463 kts | 229° |
| 2026-04-07 14:57 | 36.43821 | -33.29134 | 38604 ft | 463 kts | 229° |
| 2026-04-07 14:57 | 36.39225 | -33.34738 | 38602 ft | 463 kts | 229° |
| 2026-04-07 14:58 | 36.34625 | -33.40335 | 38604 ft | 463 kts | 228° |
| 2026-04-07 14:58 | 36.30026 | -33.45926 | 38607 ft | 462 kts | 228° |
| 2026-04-07 14:59 | 36.25461 | -33.51462 | 38603 ft | 462 kts | 228° |
| 2026-04-07 14:59 | 36.20869 | -33.57020 | 38602 ft | 461 kts | 228° |
| 2026-04-07 15:00 | 36.16269 | -33.62579 | 38598 ft | 461 kts | 228° |
| 2026-04-07 15:00 | 36.11675 | -33.68122 | 38603 ft | 461 kts | 228° |
| 2026-04-07 15:01 | 36.07079 | -33.73659 | 38611 ft | 461 kts | 227° |
| 2026-04-07 15:01 | 36.02484 | -33.79182 | 38609 ft | 461 kts | 227° |
| 2026-04-07 15:02 | 35.97917 | -33.84662 | 38598 ft | 461 kts | 227° |
| 2026-04-07 15:02 | 35.93317 | -33.90174 | 38595 ft | 461 kts | 227° |
| 2026-04-07 15:03 | 35.89490 | -33.94753 | 38599 ft | 461 kts | 227° |
| 2026-04-07 15:03 | 35.84885 | -34.00253 | 38601 ft | 461 kts | 227° |
| 2026-04-07 15:04 | 35.80275 | -34.05748 | 38601 ft | 461 kts | 227° |
| 2026-04-07 15:04 | 35.75659 | -34.11243 | 38601 ft | 461 kts | 227° |
| 2026-04-07 15:05 | 35.71049 | -34.16722 | 38602 ft | 461 kts | 227° |
| 2026-04-07 15:05 | 35.66429 | -34.22202 | 38595 ft | 461 kts | 226° |
| 2026-04-07 15:06 | 35.61812 | -34.27671 | 38607 ft | 460 kts | 226° |
| 2026-04-07 15:06 | 35.57226 | -34.33093 | 38605 ft | 460 kts | 226° |
| 2026-04-07 15:07 | 35.52610 | -34.38541 | 38603 ft | 460 kts | 226° |
| 2026-04-07 15:07 | 35.47994 | -34.43980 | 38599 ft | 460 kts | 226° |
| 2026-04-07 15:08 | 35.43374 | -34.49415 | 38603 ft | 459 kts | 226° |
| 2026-04-07 15:08 | 35.38755 | -34.54840 | 38604 ft | 459 kts | 226° |
| 2026-04-07 15:09 | 35.34464 | -34.59870 | 38603 ft | 459 kts | 226° |
| 2026-04-07 15:09 | 35.29846 | -34.65276 | 38602 ft | 459 kts | 226° |
| 2026-04-07 15:10 | 35.25224 | -34.70677 | 38601 ft | 459 kts | 226° |
| 2026-04-07 15:10 | 35.20636 | -34.76031 | 38602 ft | 459 kts | 225° |
| 2026-04-07 15:11 | 35.16010 | -34.81421 | 38600 ft | 459 kts | 225° |
| 2026-04-07 15:11 | 35.11388 | -34.86799 | 38600 ft | 459 kts | 225° |
| 2026-04-07 15:12 | 35.06765 | -34.92172 | 38599 ft | 459 kts | 225° |
| 2026-04-07 15:12 | 35.02141 | -34.97538 | 38596 ft | 458 kts | 225° |
| 2026-04-07 15:13 | 34.98030 | -35.03431 | 38597 ft | 455 kts | 237° |
| 2026-04-07 15:13 | 34.94473 | -35.09822 | 38593 ft | 455 kts | 237° |
| 2026-04-07 15:14 | 34.90905 | -35.16199 | 38593 ft | 455 kts | 237° |
| 2026-04-07 15:14 | 34.87324 | -35.22574 | 38594 ft | 455 kts | 237° |
| 2026-04-07 15:15 | 34.83764 | -35.28898 | 38596 ft | 455 kts | 237° |
| 2026-04-07 15:15 | 34.80183 | -35.35244 | 38596 ft | 455 kts | 237° |
| 2026-04-07 15:16 | 34.76597 | -35.41586 | 38595 ft | 454 kts | 237° |
| 2026-04-07 15:16 | 34.73010 | -35.47915 | 38593 ft | 454 kts | 237° |
| 2026-04-07 15:17 | 34.69421 | -35.54236 | 38602 ft | 454 kts | 237° |
| 2026-04-07 15:17 | 34.65833 | -35.60547 | 38593 ft | 453 kts | 237° |
| 2026-04-07 15:18 | 34.62265 | -35.66811 | 38592 ft | 453 kts | 237° |
| 2026-04-07 15:18 | 34.58676 | -35.73100 | 38588 ft | 453 kts | 237° |
| 2026-04-07 15:19 | 34.55093 | -35.79368 | 38597 ft | 451 kts | 237° |
| 2026-04-07 15:19 | 34.51506 | -35.85631 | 38594 ft | 451 kts | 237° |
| 2026-04-07 15:20 | 34.47948 | -35.91834 | 38588 ft | 451 kts | 237° |
| 2026-04-07 15:20 | 34.44357 | -35.98082 | 38584 ft | 450 kts | 237° |
| 2026-04-07 15:21 | 34.40769 | -36.04313 | 38592 ft | 449 kts | 237° |
| 2026-04-07 15:21 | 34.37215 | -36.10476 | 38587 ft | 449 kts | 236° |
| 2026-04-07 15:22 | 34.33636 | -36.16671 | 38582 ft | 448 kts | 236° |
| 2026-04-07 15:22 | 34.30061 | -36.22848 | 38583 ft | 448 kts | 236° |
| 2026-04-07 15:23 | 34.26487 | -36.29015 | 38577 ft | 448 kts | 236° |
| 2026-04-07 15:23 | 34.22909 | -36.35176 | 38576 ft | 448 kts | 236° |
| 2026-04-07 15:24 | 34.19329 | -36.41331 | 38575 ft | 448 kts | 236° |
| 2026-04-07 15:24 | 34.15742 | -36.47487 | 38575 ft | 448 kts | 236° |
| 2026-04-07 15:25 | 34.12174 | -36.53600 | 38576 ft | 448 kts | 236° |
| 2026-04-07 15:25 | 34.08580 | -36.59748 | 38573 ft | 448 kts | 236° |
| 2026-04-07 15:26 | 34.04979 | -36.65898 | 38573 ft | 448 kts | 236° |
| 2026-04-07 15:26 | 34.01405 | -36.71992 | 38572 ft | 448 kts | 236° |
| 2026-04-07 15:27 | 33.97803 | -36.78123 | 38565 ft | 448 kts | 236° |
| 2026-04-07 15:27 | 33.94198 | -36.84248 | 38569 ft | 448 kts | 236° |
| 2026-04-07 15:28 | 33.90584 | -36.90376 | 38573 ft | 448 kts | 236° |
| 2026-04-07 15:28 | 33.86962 | -36.96509 | 38572 ft | 449 kts | 236° |
| 2026-04-07 15:29 | 33.83367 | -37.02590 | 38567 ft | 449 kts | 235° |
| 2026-04-07 15:29 | 33.79744 | -37.08703 | 38572 ft | 449 kts | 235° |
| 2026-04-07 15:30 | 33.76118 | -37.14809 | 38572 ft | 449 kts | 235° |
| 2026-04-07 15:30 | 33.72485 | -37.20919 | 38574 ft | 448 kts | 235° |
| 2026-04-07 15:31 | 33.68857 | -37.27013 | 38578 ft | 448 kts | 235° |
| 2026-04-07 15:31 | 33.65229 | -37.33094 | 38575 ft | 448 kts | 235° |
| 2026-04-07 15:32 | 33.61623 | -37.39128 | 38565 ft | 447 kts | 235° |
| 2026-04-07 15:32 | 33.57992 | -37.45194 | 38564 ft | 447 kts | 235° |
| 2026-04-07 15:33 | 33.54357 | -37.51259 | 38566 ft | 447 kts | 234° |
| 2026-04-07 15:33 | 33.50728 | -37.57302 | 38565 ft | 446 kts | 234° |
| 2026-04-07 15:34 | 33.47094 | -37.63343 | 38563 ft | 446 kts | 234° |
| 2026-04-07 15:34 | 33.43483 | -37.69335 | 38562 ft | 446 kts | 234° |
| 2026-04-07 15:35 | 33.39844 | -37.75366 | 38569 ft | 446 kts | 234° |
| 2026-04-07 15:35 | 33.36213 | -37.81374 | 38560 ft | 445 kts | 234° |
| 2026-04-07 15:36 | 33.32582 | -37.87370 | 38559 ft | 445 kts | 234° |
| 2026-04-07 15:36 | 33.28949 | -37.93361 | 38558 ft | 445 kts | 234° |
| 2026-04-07 15:37 | 33.25338 | -37.99305 | 38568 ft | 444 kts | 234° |
| 2026-04-07 15:37 | 33.21703 | -38.05279 | 38557 ft | 444 kts | 234° |
| 2026-04-07 15:38 | 33.18066 | -38.11239 | 38553 ft | 444 kts | 234° |
| 2026-04-07 15:38 | 33.14426 | -38.17197 | 38552 ft | 443 kts | 234° |
| 2026-04-07 15:39 | 33.10791 | -38.23144 | 38548 ft | 443 kts | 234° |
| 2026-04-07 15:39 | 33.07182 | -38.29040 | 38547 ft | 443 kts | 234° |
| 2026-04-07 15:40 | 33.03548 | -38.34966 | 38551 ft | 442 kts | 234° |
| 2026-04-07 15:40 | 32.99911 | -38.40887 | 38547 ft | 442 kts | 234° |
| 2026-04-07 15:41 | 32.96269 | -38.46808 | 38552 ft | 442 kts | 234° |
| 2026-04-07 15:41 | 32.92632 | -38.52711 | 38548 ft | 442 kts | 234° |
| 2026-04-07 15:42 | 32.88994 | -38.58605 | 38547 ft | 442 kts | 234° |
| 2026-04-07 15:42 | 32.83553 | -38.67404 | 38531 ft | 442 kts | 234° |
| 2026-04-07 15:43 | 32.79912 | -38.73282 | 38542 ft | 441 kts | 234° |
| 2026-04-07 15:43 | 32.76261 | -38.79164 | 38544 ft | 441 kts | 234° |
| 2026-04-07 15:44 | 32.72613 | -38.85033 | 38547 ft | 441 kts | 234° |
| 2026-04-07 15:44 | 32.68964 | -38.90896 | 38544 ft | 441 kts | 234° |
| 2026-04-07 15:45 | 32.65333 | -38.96719 | 38541 ft | 441 kts | 234° |
| 2026-04-07 15:45 | 32.61672 | -39.02581 | 38546 ft | 441 kts | 234° |
| 2026-04-07 15:46 | 32.58010 | -39.08436 | 38538 ft | 442 kts | 234° |
| 2026-04-07 15:46 | 32.54340 | -39.14296 | 38539 ft | 442 kts | 234° |
| 2026-04-07 15:47 | 32.50693 | -39.20107 | 38535 ft | 442 kts | 234° |
| 2026-04-07 15:47 | 32.47027 | -39.25942 | 38537 ft | 442 kts | 234° |
| 2026-04-07 15:48 | 32.43355 | -39.31776 | 38542 ft | 442 kts | 234° |
| 2026-04-07 15:48 | 32.39672 | -39.37618 | 38529 ft | 442 kts | 234° |
| 2026-04-07 15:49 | 32.36019 | -39.43405 | 38531 ft | 442 kts | 234° |
| 2026-04-07 15:49 | 32.32339 | -39.49226 | 38522 ft | 442 kts | 234° |
| 2026-04-07 15:50 | 32.28656 | -39.55041 | 38530 ft | 442 kts | 234° |
| 2026-04-07 15:50 | 32.24970 | -39.60852 | 38530 ft | 442 kts | 234° |
| 2026-04-07 15:51 | 32.21872 | -39.65730 | 38533 ft | 442 kts | 234° |
| 2026-04-07 15:51 | 32.18200 | -39.71504 | 38536 ft | 442 kts | 234° |
| 2026-04-07 15:52 | 32.14498 | -39.77317 | 38538 ft | 442 kts | 234° |
| 2026-04-07 15:52 | 32.10796 | -39.83119 | 38529 ft | 442 kts | 234° |
| 2026-04-07 15:53 | 32.07085 | -39.88935 | 38525 ft | 443 kts | 234° |
| 2026-04-07 15:53 | 32.03405 | -39.94693 | 38521 ft | 443 kts | 234° |
| 2026-04-07 15:54 | 31.99695 | -40.00489 | 38532 ft | 443 kts | 234° |
| 2026-04-07 15:54 | 31.96228 | -40.06476 | 38518 ft | 442 kts | 239° |
| 2026-04-07 15:55 | 31.92885 | -40.12548 | 38525 ft | 442 kts | 238° |
| 2026-04-07 15:55 | 31.89496 | -40.18601 | 38519 ft | 442 kts | 238° |
| 2026-04-07 15:56 | 31.86089 | -40.24632 | 38519 ft | 442 kts | 238° |
| 2026-04-07 15:56 | 31.82676 | -40.30658 | 38536 ft | 442 kts | 238° |
| 2026-04-07 15:57 | 31.79260 | -40.36677 | 38513 ft | 443 kts | 238° |
| 2026-04-07 15:57 | 31.75859 | -40.42661 | 38504 ft | 443 kts | 238° |
| 2026-04-07 15:58 | 31.72432 | -40.48680 | 38498 ft | 443 kts | 238° |
| 2026-04-07 15:58 | 31.68997 | -40.54704 | 38528 ft | 443 kts | 238° |
| 2026-04-07 15:59 | 31.65557 | -40.60725 | 38533 ft | 443 kts | 238° |
| 2026-04-07 15:59 | 31.62140 | -40.66699 | 38527 ft | 444 kts | 238° |
| 2026-04-07 16:00 | 31.58696 | -40.72710 | 38518 ft | 444 kts | 238° |
| 2026-04-07 16:00 | 31.55249 | -40.78718 | 38523 ft | 444 kts | 238° |
| 2026-04-07 16:01 | 31.51797 | -40.84724 | 38514 ft | 444 kts | 238° |
| 2026-04-07 16:01 | 31.48347 | -40.90718 | 38513 ft | 444 kts | 238° |
| 2026-04-07 16:02 | 31.44909 | -40.96682 | 38513 ft | 444 kts | 238° |
| 2026-04-07 16:02 | 31.41454 | -41.02664 | 38512 ft | 443 kts | 237° |
| 2026-04-07 16:03 | 31.37998 | -41.08641 | 38511 ft | 443 kts | 237° |
| 2026-04-07 16:03 | 31.34534 | -41.14622 | 38505 ft | 443 kts | 237° |
| 2026-04-07 16:04 | 31.31071 | -41.20592 | 38506 ft | 443 kts | 237° |
| 2026-04-07 16:04 | 31.27607 | -41.26554 | 38504 ft | 443 kts | 237° |
| 2026-04-07 16:05 | 31.24159 | -41.32480 | 38505 ft | 443 kts | 237° |
| 2026-04-07 16:05 | 31.20689 | -41.38433 | 38505 ft | 443 kts | 237° |
| 2026-04-07 16:06 | 31.17215 | -41.44387 | 38506 ft | 443 kts | 237° |
| 2026-04-07 16:06 | 31.13741 | -41.50331 | 38502 ft | 443 kts | 237° |
| 2026-04-07 16:07 | 31.10259 | -41.56274 | 38497 ft | 443 kts | 237° |
| 2026-04-07 16:07 | 31.06778 | -41.62204 | 38503 ft | 443 kts | 238° |
| 2026-04-07 16:08 | 31.03318 | -41.68095 | 38503 ft | 443 kts | 238° |
| 2026-04-07 16:08 | 30.99828 | -41.74029 | 38497 ft | 443 kts | 238° |
| 2026-04-07 16:09 | 30.96344 | -41.79944 | 38509 ft | 442 kts | 238° |
| 2026-04-07 16:09 | 30.92862 | -41.85848 | 38503 ft | 442 kts | 238° |
| 2026-04-07 16:10 | 30.89379 | -41.91746 | 38494 ft | 441 kts | 238° |
| 2026-04-07 16:10 | 30.85899 | -41.97631 | 38492 ft | 441 kts | 238° |
| 2026-04-07 16:11 | 30.82441 | -42.03468 | 38502 ft | 440 kts | 238° |
| 2026-04-07 16:11 | 30.78964 | -42.09327 | 38495 ft | 439 kts | 238° |
| 2026-04-07 16:12 | 30.75488 | -42.15177 | 38489 ft | 439 kts | 238° |
| 2026-04-07 16:12 | 30.72011 | -42.21022 | 38494 ft | 438 kts | 238° |
| 2026-04-07 16:13 | 30.68542 | -42.26844 | 38494 ft | 438 kts | 238° |
| 2026-04-07 16:13 | 30.65074 | -42.32656 | 38483 ft | 437 kts | 238° |
| 2026-04-07 16:14 | 30.61624 | -42.38428 | 38480 ft | 437 kts | 238° |
| 2026-04-07 16:14 | 30.58145 | -42.44241 | 38480 ft | 437 kts | 237° |
| 2026-04-07 16:15 | 30.54673 | -42.50033 | 38480 ft | 437 kts | 237° |
| 2026-04-07 16:15 | 30.51191 | -42.55835 | 38474 ft | 437 kts | 237° |
| 2026-04-07 16:16 | 30.47729 | -42.61594 | 38455 ft | 438 kts | 237° |
| 2026-04-07 16:16 | 30.44235 | -42.67398 | 38465 ft | 439 kts | 237° |
| 2026-04-07 16:17 | 30.40738 | -42.73199 | 38467 ft | 439 kts | 237° |
| 2026-04-07 16:17 | 30.37232 | -42.79005 | 38470 ft | 440 kts | 237° |
| 2026-04-07 16:18 | 30.33748 | -42.84770 | 38470 ft | 440 kts | 237° |
| 2026-04-07 16:18 | 30.30230 | -42.90578 | 38469 ft | 440 kts | 237° |
| 2026-04-07 16:19 | 30.26708 | -42.96384 | 38466 ft | 440 kts | 237° |
| 2026-04-07 16:19 | 30.23179 | -43.02196 | 38468 ft | 441 kts | 237° |
| 2026-04-07 16:20 | 30.19676 | -43.07957 | 38467 ft | 440 kts | 237° |
| 2026-04-07 16:20 | 30.16149 | -43.13747 | 38466 ft | 440 kts | 237° |
| 2026-04-07 16:21 | 30.12620 | -43.19533 | 38465 ft | 440 kts | 237° |
| 2026-04-07 16:21 | 30.09089 | -43.25314 | 38464 ft | 440 kts | 237° |
| 2026-04-07 16:22 | 30.05557 | -43.31090 | 38466 ft | 440 kts | 237° |
| 2026-04-07 16:22 | 30.02021 | -43.36861 | 38464 ft | 440 kts | 237° |
| 2026-04-07 16:23 | 29.98484 | -43.42626 | 38461 ft | 440 kts | 237° |
| 2026-04-07 16:23 | 29.94962 | -43.48361 | 38459 ft | 440 kts | 237° |
| 2026-04-07 16:24 | 29.91413 | -43.54130 | 38456 ft | 440 kts | 236° |
| 2026-04-07 16:24 | 29.87864 | -43.59891 | 38457 ft | 440 kts | 236° |
| 2026-04-07 16:25 | 29.84339 | -43.65607 | 38452 ft | 441 kts | 236° |
| 2026-04-07 16:25 | 29.80785 | -43.71360 | 38457 ft | 441 kts | 236° |
| 2026-04-07 16:26 | 29.77226 | -43.77113 | 38453 ft | 441 kts | 236° |
| 2026-04-07 16:26 | 29.73662 | -43.82866 | 38451 ft | 441 kts | 236° |
| 2026-04-07 16:27 | 29.70091 | -43.88622 | 38451 ft | 441 kts | 236° |
| 2026-04-07 16:27 | 29.66516 | -43.94375 | 38455 ft | 441 kts | 236° |
| 2026-04-07 16:28 | 29.62943 | -44.00118 | 38442 ft | 441 kts | 236° |
| 2026-04-07 16:28 | 29.59394 | -44.05817 | 38450 ft | 441 kts | 236° |
| 2026-04-07 16:29 | 29.55817 | -44.11550 | 38450 ft | 441 kts | 236° |
| 2026-04-07 16:29 | 29.52233 | -44.17286 | 38450 ft | 441 kts | 236° |
| 2026-04-07 16:30 | 29.48650 | -44.23013 | 38445 ft | 441 kts | 236° |
| 2026-04-07 16:30 | 29.45065 | -44.28735 | 38448 ft | 441 kts | 236° |
| 2026-04-07 16:31 | 29.41504 | -44.34411 | 38443 ft | 441 kts | 236° |
| 2026-04-07 16:31 | 29.37909 | -44.40133 | 38443 ft | 441 kts | 236° |
| 2026-04-07 16:32 | 29.34320 | -44.45838 | 38444 ft | 441 kts | 236° |
| 2026-04-07 16:32 | 29.30728 | -44.51539 | 38438 ft | 441 kts | 235° |
| 2026-04-07 16:33 | 29.27134 | -44.57236 | 38438 ft | 441 kts | 235° |
| 2026-04-07 16:33 | 29.23538 | -44.62928 | 38432 ft | 441 kts | 235° |
| 2026-04-07 16:34 | 29.19938 | -44.68619 | 38430 ft | 441 kts | 235° |
| 2026-04-07 16:34 | 29.16347 | -44.74289 | 38431 ft | 441 kts | 235° |
| 2026-04-07 16:35 | 29.12739 | -44.79977 | 38432 ft | 442 kts | 235° |
| 2026-04-07 16:35 | 29.09129 | -44.85664 | 38431 ft | 442 kts | 235° |
| 2026-04-07 16:36 | 29.05518 | -44.91347 | 38431 ft | 442 kts | 235° |
| 2026-04-07 16:36 | 29.01902 | -44.97029 | 38431 ft | 442 kts | 235° |
| 2026-04-07 16:37 | 28.98353 | -45.02704 | 38423 ft | 441 kts | 237° |
| 2026-04-07 16:37 | 28.95043 | -45.08616 | 38424 ft | 442 kts | 239° |
| 2026-04-07 16:38 | 28.91735 | -45.14543 | 38419 ft | 442 kts | 238° |
| 2026-04-07 16:38 | 28.88961 | -45.19450 | 38424 ft | 442 kts | 238° |
| 2026-04-07 16:39 | 28.85069 | -45.26297 | 38431 ft | 442 kts | 238° |
| 2026-04-07 16:39 | 28.81715 | -45.32187 | 38427 ft | 442 kts | 238° |
| 2026-04-07 16:40 | 28.78926 | -45.37077 | 38417 ft | 442 kts | 238° |
| 2026-04-07 16:40 | 28.75568 | -45.42955 | 38425 ft | 442 kts | 238° |
| 2026-04-07 16:41 | 28.72207 | -45.48830 | 38421 ft | 442 kts | 238° |
| 2026-04-07 16:41 | 28.68843 | -45.54702 | 38412 ft | 442 kts | 238° |
| 2026-04-07 16:42 | 28.65483 | -45.60560 | 38417 ft | 442 kts | 238° |
| 2026-04-07 16:42 | 28.62139 | -45.66381 | 38417 ft | 442 kts | 238° |
| 2026-04-07 16:43 | 28.58773 | -45.72230 | 38416 ft | 442 kts | 238° |
| 2026-04-07 16:43 | 28.55402 | -45.78083 | 38405 ft | 442 kts | 238° |
| 2026-04-07 16:44 | 28.52030 | -45.83927 | 38408 ft | 442 kts | 238° |
| 2026-04-07 16:44 | 28.48654 | -45.89771 | 38403 ft | 442 kts | 238° |
| 2026-04-07 16:45 | 28.45299 | -45.95574 | 38402 ft | 442 kts | 238° |
| 2026-04-07 16:45 | 28.41923 | -46.01400 | 38410 ft | 441 kts | 238° |
| 2026-04-07 16:46 | 28.38551 | -46.07214 | 38406 ft | 441 kts | 238° |
| 2026-04-07 16:46 | 28.35176 | -46.13025 | 38401 ft | 440 kts | 238° |
| 2026-04-07 16:47 | 28.31797 | -46.18835 | 38414 ft | 440 kts | 238° |
| 2026-04-07 16:47 | 28.28437 | -46.24605 | 38399 ft | 440 kts | 237° |
| 2026-04-07 16:48 | 28.25060 | -46.30394 | 38397 ft | 440 kts | 237° |
| 2026-04-07 16:49 | 28.19988 | -46.39076 | 38394 ft | 440 kts | 237° |
| 2026-04-07 16:49 | 28.16604 | -46.44860 | 38387 ft | 440 kts | 237° |
| 2026-04-07 16:50 | 28.13217 | -46.50640 | 38386 ft | 440 kts | 237° |
| 2026-04-07 16:50 | 28.09851 | -46.56377 | 38387 ft | 440 kts | 237° |
| 2026-04-07 16:51 | 28.06453 | -46.62161 | 38389 ft | 440 kts | 237° |
| 2026-04-07 16:51 | 28.03053 | -46.67940 | 38386 ft | 440 kts | 237° |
| 2026-04-07 16:52 | 27.99653 | -46.73709 | 38387 ft | 441 kts | 237° |
| 2026-04-07 16:52 | 27.96267 | -46.79448 | 38385 ft | 441 kts | 237° |
| 2026-04-07 16:53 | 27.92860 | -46.85215 | 38386 ft | 441 kts | 237° |
| 2026-04-07 16:53 | 27.89442 | -46.90992 | 38388 ft | 441 kts | 237° |
| 2026-04-07 16:54 | 27.86030 | -46.96754 | 38393 ft | 441 kts | 237° |
| 2026-04-07 16:54 | 27.82606 | -47.02528 | 38381 ft | 442 kts | 237° |
| 2026-04-07 16:55 | 27.79183 | -47.08291 | 38367 ft | 442 kts | 237° |
| 2026-04-07 16:55 | 27.75746 | -47.14069 | 38371 ft | 443 kts | 237° |
| 2026-04-07 16:56 | 27.72308 | -47.19844 | 38368 ft | 444 kts | 237° |
| 2026-04-07 16:56 | 27.68881 | -47.25592 | 38374 ft | 444 kts | 237° |
| 2026-04-07 16:57 | 27.65427 | -47.31377 | 38368 ft | 444 kts | 237° |
| 2026-04-07 16:57 | 27.61968 | -47.37163 | 38370 ft | 445 kts | 237° |
| 2026-04-07 16:58 | 27.58503 | -47.42952 | 38373 ft | 445 kts | 237° |
| 2026-04-07 16:58 | 27.55060 | -47.48695 | 38371 ft | 445 kts | 237° |
| 2026-04-07 16:59 | 27.51590 | -47.54474 | 38373 ft | 445 kts | 237° |
| 2026-04-07 16:59 | 27.48120 | -47.60247 | 38372 ft | 445 kts | 237° |
| 2026-04-07 17:00 | 27.44650 | -47.66014 | 38365 ft | 444 kts | 237° |
| 2026-04-07 17:00 | 27.41176 | -47.71779 | 38366 ft | 444 kts | 237° |
| 2026-04-07 17:01 | 27.37709 | -47.77523 | 38384 ft | 443 kts | 237° |
| 2026-04-07 17:01 | 27.34240 | -47.83266 | 38366 ft | 443 kts | 237° |
| 2026-04-07 17:02 | 27.30801 | -47.88951 | 38362 ft | 442 kts | 237° |
| 2026-04-07 17:02 | 27.27342 | -47.94662 | 38359 ft | 441 kts | 237° |
| 2026-04-07 17:03 | 27.23887 | -48.00358 | 38379 ft | 440 kts | 237° |
| 2026-04-07 17:03 | 27.20435 | -48.06043 | 38356 ft | 440 kts | 237° |
| 2026-04-07 17:04 | 27.16988 | -48.11714 | 38349 ft | 439 kts | 237° |
| 2026-04-07 17:04 | 27.13535 | -48.17385 | 38344 ft | 439 kts | 237° |
| 2026-04-07 17:05 | 27.10089 | -48.23038 | 38368 ft | 438 kts | 237° |
| 2026-04-07 17:05 | 27.06662 | -48.28652 | 38343 ft | 438 kts | 237° |
| 2026-04-07 17:06 | 27.03207 | -48.34305 | 38342 ft | 438 kts | 237° |
| 2026-04-07 17:06 | 26.99749 | -48.39956 | 38342 ft | 438 kts | 237° |
| 2026-04-07 17:07 | 26.96315 | -48.45561 | 38333 ft | 439 kts | 237° |
| 2026-04-07 17:07 | 26.92858 | -48.51194 | 38346 ft | 438 kts | 237° |
| 2026-04-07 17:08 | 26.89402 | -48.56821 | 38341 ft | 438 kts | 237° |
| 2026-04-07 17:08 | 26.85947 | -48.62440 | 38342 ft | 438 kts | 237° |
| 2026-04-07 17:09 | 26.82512 | -48.68019 | 38324 ft | 438 kts | 237° |
| 2026-04-07 17:09 | 26.79053 | -48.73628 | 38328 ft | 437 kts | 237° |
| 2026-04-07 17:10 | 26.75595 | -48.79229 | 38325 ft | 437 kts | 237° |
| 2026-04-07 17:10 | 26.72139 | -48.84820 | 38347 ft | 436 kts | 237° |
| 2026-04-07 17:11 | 26.68681 | -48.90409 | 38351 ft | 436 kts | 237° |
| 2026-04-07 17:11 | 26.65226 | -48.95984 | 38339 ft | 435 kts | 237° |
| 2026-04-07 17:12 | 26.61797 | -49.01512 | 38335 ft | 435 kts | 237° |
| 2026-04-07 17:12 | 26.58343 | -49.07073 | 38335 ft | 434 kts | 237° |
| 2026-04-07 17:13 | 26.54896 | -49.12616 | 38321 ft | 435 kts | 237° |
| 2026-04-07 17:13 | 26.51437 | -49.18171 | 38343 ft | 435 kts | 237° |
| 2026-04-07 17:14 | 26.47978 | -49.23721 | 38337 ft | 435 kts | 237° |
| 2026-04-07 17:14 | 26.44532 | -49.29241 | 38319 ft | 435 kts | 237° |
| 2026-04-07 17:15 | 26.41065 | -49.34787 | 38313 ft | 436 kts | 237° |
| 2026-04-07 17:15 | 26.37592 | -49.40338 | 38330 ft | 436 kts | 237° |
| 2026-04-07 17:16 | 26.34121 | -49.45877 | 38336 ft | 435 kts | 237° |
| 2026-04-07 17:16 | 26.30680 | -49.51364 | 38328 ft | 434 kts | 237° |
| 2026-04-07 17:17 | 26.27207 | -49.56897 | 38311 ft | 435 kts | 236° |
| 2026-04-07 17:17 | 26.23730 | -49.62426 | 38313 ft | 435 kts | 236° |
| 2026-04-07 17:18 | 26.20253 | -49.67946 | 38334 ft | 434 kts | 237° |
| 2026-04-07 17:18 | 26.16805 | -49.73417 | 38328 ft | 433 kts | 237° |
| 2026-04-07 17:19 | 26.13339 | -49.78912 | 38297 ft | 434 kts | 236° |
| 2026-04-07 17:19 | 26.09867 | -49.84410 | 38301 ft | 434 kts | 236° |
| 2026-04-07 17:20 | 26.06419 | -49.89865 | 38326 ft | 433 kts | 236° |
| 2026-04-07 17:20 | 26.02956 | -49.95339 | 38324 ft | 432 kts | 236° |
| 2026-04-07 17:21 | 25.99495 | -50.00806 | 38306 ft | 432 kts | 237° |
| 2026-04-07 17:21 | 25.96244 | -50.06431 | 38308 ft | 432 kts | 239° |
| 2026-04-07 17:22 | 25.93075 | -50.12094 | 38300 ft | 432 kts | 239° |
| 2026-04-07 17:22 | 25.89892 | -50.17703 | 38312 ft | 431 kts | 239° |
| 2026-04-07 17:23 | 25.86683 | -50.23326 | 38295 ft | 431 kts | 239° |
| 2026-04-07 17:23 | 25.83461 | -50.28958 | 38301 ft | 431 kts | 239° |
| 2026-04-07 17:24 | 25.80239 | -50.34582 | 38296 ft | 432 kts | 238° |
| 2026-04-07 17:24 | 25.77012 | -50.40207 | 38283 ft | 432 kts | 239° |
| 2026-04-07 17:25 | 25.73807 | -50.45787 | 38295 ft | 431 kts | 238° |
| 2026-04-07 17:25 | 25.70576 | -50.51408 | 38292 ft | 432 kts | 238° |
| 2026-04-07 17:26 | 25.67342 | -50.57022 | 38297 ft | 432 kts | 238° |
| 2026-04-07 17:26 | 25.64101 | -50.62643 | 38293 ft | 432 kts | 238° |
| 2026-04-07 17:27 | 25.60859 | -50.68262 | 38294 ft | 432 kts | 238° |
| 2026-04-07 17:27 | 25.57612 | -50.73879 | 38285 ft | 433 kts | 238° |
| 2026-04-07 17:28 | 25.54908 | -50.78553 | 38292 ft | 433 kts | 238° |
| 2026-04-07 17:28 | 25.51124 | -50.85085 | 38294 ft | 433 kts | 238° |
| 2026-04-07 17:29 | 25.47864 | -50.90706 | 38278 ft | 435 kts | 238° |
| 2026-04-07 17:29 | 25.45125 | -50.95422 | 38290 ft | 435 kts | 238° |
| 2026-04-07 17:30 | 25.41876 | -51.01012 | 38294 ft | 435 kts | 238° |
| 2026-04-07 17:30 | 25.38595 | -51.06650 | 38291 ft | 435 kts | 238° |
| 2026-04-07 17:31 | 25.35319 | -51.12273 | 38289 ft | 435 kts | 238° |
| 2026-04-07 17:31 | 25.32042 | -51.17890 | 38288 ft | 435 kts | 238° |
| 2026-04-07 17:32 | 25.28766 | -51.23501 | 38284 ft | 434 kts | 238° |
| 2026-04-07 17:32 | 25.25505 | -51.29077 | 38284 ft | 434 kts | 238° |
| 2026-04-07 17:33 | 25.22221 | -51.34687 | 38272 ft | 435 kts | 238° |
| 2026-04-07 17:33 | 25.18924 | -51.40310 | 38272 ft | 436 kts | 238° |
| 2026-04-07 17:34 | 25.15626 | -51.45931 | 38279 ft | 436 kts | 238° |
| 2026-04-07 17:34 | 25.12321 | -51.51557 | 38286 ft | 436 kts | 238° |
| 2026-04-07 17:35 | 25.09027 | -51.57157 | 38282 ft | 435 kts | 237° |
| 2026-04-07 17:35 | 25.05738 | -51.62739 | 38268 ft | 437 kts | 238° |
| 2026-04-07 17:36 | 25.02421 | -51.68366 | 38271 ft | 438 kts | 238° |
| 2026-04-07 17:36 | 24.99100 | -51.73991 | 38276 ft | 438 kts | 238° |
| 2026-04-07 17:37 | 24.95767 | -51.79631 | 38277 ft | 438 kts | 238° |
| 2026-04-07 17:37 | 24.92425 | -51.85278 | 38253 ft | 441 kts | 238° |
| 2026-04-07 17:38 | 24.89071 | -51.90941 | 38260 ft | 442 kts | 238° |
| 2026-04-07 17:38 | 24.85730 | -51.96574 | 38268 ft | 443 kts | 238° |
| 2026-04-07 17:39 | 24.82355 | -52.02257 | 38273 ft | 443 kts | 238° |
| 2026-04-07 17:39 | 24.78973 | -52.07944 | 38256 ft | 444 kts | 238° |
| 2026-04-07 17:40 | 24.75578 | -52.13649 | 38263 ft | 445 kts | 238° |
| 2026-04-07 17:40 | 24.72175 | -52.19360 | 38268 ft | 446 kts | 238° |
| 2026-04-07 17:41 | 24.68766 | -52.25074 | 38269 ft | 447 kts | 238° |
| 2026-04-07 17:41 | 24.65372 | -52.30755 | 38254 ft | 447 kts | 238° |
| 2026-04-07 17:42 | 24.61950 | -52.36478 | 38264 ft | 447 kts | 238° |
| 2026-04-07 17:42 | 24.58528 | -52.42194 | 38262 ft | 448 kts | 238° |
| 2026-04-07 17:43 | 24.55096 | -52.47919 | 38263 ft | 448 kts | 238° |
| 2026-04-07 17:43 | 24.51662 | -52.53642 | 38261 ft | 448 kts | 238° |
| 2026-04-07 17:44 | 24.48245 | -52.59329 | 38245 ft | 449 kts | 238° |
| 2026-04-07 17:44 | 24.44808 | -52.65042 | 38261 ft | 448 kts | 238° |
| 2026-04-07 17:45 | 24.41370 | -52.70751 | 38260 ft | 448 kts | 238° |
| 2026-04-07 17:45 | 24.37928 | -52.76460 | 38257 ft | 448 kts | 238° |
| 2026-04-07 17:46 | 24.34486 | -52.82160 | 38248 ft | 448 kts | 238° |
| 2026-04-07 17:46 | 24.31038 | -52.87865 | 38245 ft | 448 kts | 238° |
| 2026-04-07 17:47 | 24.27593 | -52.93558 | 38252 ft | 448 kts | 238° |
| 2026-04-07 17:47 | 24.24147 | -52.99245 | 38250 ft | 448 kts | 238° |
| 2026-04-07 17:48 | 24.20722 | -53.04894 | 38242 ft | 448 kts | 238° |
| 2026-04-07 17:48 | 24.17267 | -53.10583 | 38242 ft | 448 kts | 238° |
| 2026-04-07 17:49 | 24.13810 | -53.16272 | 38227 ft | 448 kts | 239° |
| 2026-04-07 17:49 | 24.10353 | -53.21948 | 38246 ft | 447 kts | 239° |
| 2026-04-07 17:50 | 24.06905 | -53.27609 | 38238 ft | 447 kts | 239° |
| 2026-04-07 17:50 | 24.03448 | -53.33277 | 38238 ft | 447 kts | 239° |
| 2026-04-07 17:51 | 24.00010 | -53.38907 | 38235 ft | 447 kts | 238° |
| 2026-04-07 17:51 | 23.96547 | -53.44572 | 38237 ft | 447 kts | 238° |
| 2026-04-07 17:52 | 23.93079 | -53.50237 | 38235 ft | 447 kts | 239° |
| 2026-04-07 17:52 | 23.89639 | -53.55852 | 38232 ft | 447 kts | 238° |
| 2026-04-07 17:53 | 23.86169 | -53.61508 | 38232 ft | 447 kts | 238° |
| 2026-04-07 17:53 | 23.80967 | -53.69977 | 38230 ft | 448 kts | 238° |
| 2026-04-07 17:54 | 23.77498 | -53.75619 | 38225 ft | 448 kts | 238° |
| 2026-04-07 17:54 | 23.74019 | -53.81268 | 38228 ft | 448 kts | 238° |
| 2026-04-07 17:55 | 23.70538 | -53.86912 | 38222 ft | 448 kts | 238° |
| 2026-04-07 17:55 | 23.67075 | -53.92524 | 38223 ft | 448 kts | 238° |
| 2026-04-07 17:56 | 23.63588 | -53.98166 | 38225 ft | 448 kts | 238° |
| 2026-04-07 17:56 | 23.60098 | -54.03808 | 38212 ft | 448 kts | 238° |
| 2026-04-07 17:57 | 23.56608 | -54.09444 | 38219 ft | 448 kts | 238° |
| 2026-04-07 17:57 | 23.53111 | -54.15084 | 38224 ft | 448 kts | 238° |
| 2026-04-07 17:58 | 23.49636 | -54.20683 | 38219 ft | 448 kts | 238° |
| 2026-04-07 17:58 | 23.46140 | -54.26309 | 38208 ft | 449 kts | 238° |
| 2026-04-07 17:59 | 23.42635 | -54.31943 | 38214 ft | 449 kts | 238° |
| 2026-04-07 17:59 | 23.39130 | -54.37572 | 38215 ft | 449 kts | 238° |
| 2026-04-07 18:00 | 23.35619 | -54.43204 | 38216 ft | 449 kts | 238° |
| 2026-04-07 18:00 | 23.32111 | -54.48824 | 38215 ft | 449 kts | 238° |
| 2026-04-07 18:01 | 23.28596 | -54.54450 | 38206 ft | 449 kts | 238° |
| 2026-04-07 18:01 | 23.25081 | -54.60069 | 38210 ft | 449 kts | 238° |
| 2026-04-07 18:02 | 23.21563 | -54.65689 | 38208 ft | 450 kts | 238° |
| 2026-04-07 18:02 | 23.18061 | -54.71275 | 38207 ft | 450 kts | 238° |
| 2026-04-07 18:03 | 23.14534 | -54.76894 | 38207 ft | 450 kts | 238° |
| 2026-04-07 18:03 | 23.11003 | -54.82518 | 38209 ft | 450 kts | 238° |
| 2026-04-07 18:04 | 23.07474 | -54.88132 | 38211 ft | 450 kts | 238° |
| 2026-04-07 18:04 | 23.03941 | -54.93748 | 38215 ft | 449 kts | 238° |
| 2026-04-07 18:05 | 23.00417 | -54.99307 | 38209 ft | 449 kts | 236° |
| 2026-04-07 18:05 | 22.96481 | -55.04585 | 38204 ft | 449 kts | 233° |
| 2026-04-07 18:06 | 22.92480 | -55.09806 | 38199 ft | 449 kts | 233° |
| 2026-04-07 18:06 | 22.88496 | -55.15022 | 38195 ft | 449 kts | 233° |
| 2026-04-07 18:07 | 22.84511 | -55.20230 | 38203 ft | 448 kts | 233° |
| 2026-04-07 18:07 | 22.80558 | -55.25388 | 38199 ft | 447 kts | 233° |
| 2026-04-07 18:08 | 22.76585 | -55.30567 | 38194 ft | 446 kts | 233° |
| 2026-04-07 18:08 | 22.72610 | -55.35742 | 38187 ft | 446 kts | 233° |
| 2026-04-07 18:09 | 22.68634 | -55.40910 | 38184 ft | 446 kts | 233° |
| 2026-04-07 18:09 | 22.64691 | -55.46032 | 38178 ft | 446 kts | 233° |
| 2026-04-07 18:10 | 22.60727 | -55.51174 | 38188 ft | 445 kts | 233° |
| 2026-04-07 18:10 | 22.56758 | -55.56319 | 38180 ft | 445 kts | 233° |
| 2026-04-07 18:11 | 22.52791 | -55.61457 | 38181 ft | 444 kts | 233° |
| 2026-04-07 18:11 | 22.48824 | -55.66589 | 38178 ft | 444 kts | 233° |
| 2026-04-07 18:12 | 22.44855 | -55.71718 | 38175 ft | 444 kts | 233° |
| 2026-04-07 18:12 | 22.40916 | -55.76803 | 38178 ft | 443 kts | 233° |
| 2026-04-07 18:13 | 22.36960 | -55.81906 | 38171 ft | 443 kts | 233° |
| 2026-04-07 18:13 | 22.32999 | -55.87010 | 38172 ft | 443 kts | 233° |
| 2026-04-07 18:14 | 22.29041 | -55.92105 | 38174 ft | 442 kts | 233° |
| 2026-04-07 18:14 | 22.25083 | -55.97196 | 38171 ft | 442 kts | 233° |
| 2026-04-07 18:15 | 22.21125 | -56.02280 | 38183 ft | 442 kts | 233° |
| 2026-04-07 18:15 | 22.17191 | -56.07331 | 38181 ft | 442 kts | 233° |
| 2026-04-07 18:16 | 22.13233 | -56.12407 | 38156 ft | 442 kts | 233° |
| 2026-04-07 18:16 | 22.09937 | -56.16630 | 38178 ft | 442 kts | 233° |
| 2026-04-07 18:17 | 22.05978 | -56.21699 | 38159 ft | 442 kts | 233° |
| 2026-04-07 18:17 | 22.02012 | -56.26770 | 38176 ft | 441 kts | 233° |
| 2026-04-07 18:18 | 21.98059 | -56.31822 | 38151 ft | 441 kts | 233° |
| 2026-04-07 18:18 | 21.94131 | -56.36836 | 38152 ft | 441 kts | 233° |
| 2026-04-07 18:19 | 21.90174 | -56.41882 | 38166 ft | 441 kts | 233° |
| 2026-04-07 18:19 | 21.86214 | -56.46928 | 38172 ft | 440 kts | 233° |
| 2026-04-07 18:20 | 21.82255 | -56.51967 | 38161 ft | 441 kts | 233° |
| 2026-04-07 18:20 | 21.78302 | -56.56990 | 38171 ft | 438 kts | 233° |
| 2026-04-07 18:21 | 21.74365 | -56.61996 | 38157 ft | 438 kts | 233° |
| 2026-04-07 18:21 | 21.70430 | -56.66992 | 38154 ft | 438 kts | 233° |
| 2026-04-07 18:22 | 21.66514 | -56.71957 | 38146 ft | 437 kts | 233° |
| 2026-04-07 18:22 | 21.62576 | -56.76947 | 38148 ft | 437 kts | 233° |
| 2026-04-07 18:23 | 21.58637 | -56.81930 | 38162 ft | 436 kts | 233° |
| 2026-04-07 18:23 | 21.54738 | -56.86861 | 38159 ft | 434 kts | 233° |
| 2026-04-07 18:24 | 21.50828 | -56.91804 | 38152 ft | 434 kts | 233° |
| 2026-04-07 18:24 | 21.46913 | -56.96748 | 38145 ft | 433 kts | 233° |
| 2026-04-07 18:25 | 21.43004 | -57.01678 | 38145 ft | 433 kts | 233° |
| 2026-04-07 18:25 | 21.39101 | -57.06601 | 38143 ft | 433 kts | 233° |
| 2026-04-07 18:26 | 21.35199 | -57.11512 | 38143 ft | 432 kts | 234° |
| 2026-04-07 18:26 | 21.31328 | -57.16384 | 38143 ft | 431 kts | 234° |
| 2026-04-07 18:27 | 21.27435 | -57.21277 | 38138 ft | 431 kts | 234° |
| 2026-04-07 18:27 | 21.23531 | -57.26179 | 38138 ft | 431 kts | 234° |
| 2026-04-07 18:28 | 21.19633 | -57.31069 | 38134 ft | 431 kts | 234° |
| 2026-04-07 18:28 | 21.15757 | -57.35926 | 38136 ft | 431 kts | 234° |
| 2026-04-07 18:29 | 21.11855 | -57.40813 | 38126 ft | 432 kts | 233° |
| 2026-04-07 18:29 | 21.07946 | -57.45703 | 38129 ft | 432 kts | 233° |
| 2026-04-07 18:30 | 21.04031 | -57.50596 | 38133 ft | 432 kts | 233° |
| 2026-04-07 18:30 | 21.00117 | -57.55484 | 38135 ft | 432 kts | 233° |
| 2026-04-07 18:31 | 20.96198 | -57.60374 | 38131 ft | 433 kts | 233° |
| 2026-04-07 18:31 | 20.92282 | -57.65253 | 38145 ft | 431 kts | 234° |
| 2026-04-07 18:32 | 20.88375 | -57.70119 | 38134 ft | 431 kts | 234° |
| 2026-04-07 18:32 | 20.84470 | -57.74980 | 38132 ft | 431 kts | 234° |
| 2026-04-07 18:33 | 20.80564 | -57.79837 | 38122 ft | 430 kts | 234° |
| 2026-04-07 18:33 | 20.76660 | -57.84688 | 38124 ft | 430 kts | 234° |
| 2026-04-07 18:34 | 20.72781 | -57.89502 | 38123 ft | 430 kts | 234° |
| 2026-04-07 18:34 | 20.68880 | -57.94336 | 38134 ft | 429 kts | 234° |
| 2026-04-07 18:35 | 20.64980 | -57.99168 | 38118 ft | 429 kts | 234° |
| 2026-04-07 18:35 | 20.61084 | -58.03993 | 38121 ft | 429 kts | 234° |
| 2026-04-07 18:36 | 20.57186 | -58.08815 | 38124 ft | 429 kts | 234° |
| 2026-04-07 18:36 | 20.55233 | -58.11230 | 38226 ft | 430 kts | 234° |
| 2026-04-07 18:36 | 20.53278 | -58.13646 | 38428 ft | 429 kts | 234° |
| 2026-04-07 18:37 | 20.51333 | -58.16047 | 38664 ft | 427 kts | 234° |
| 2026-04-07 18:37 | 20.49390 | -58.18444 | 38835 ft | 426 kts | 234° |
| 2026-04-07 18:37 | 20.47459 | -58.20823 | 39072 ft | 423 kts | 234° |
| 2026-04-07 18:37 | 20.45559 | -58.23169 | 39174 ft | 423 kts | 234° |
| 2026-04-07 18:38 | 20.43634 | -58.25545 | 39310 ft | 423 kts | 234° |
| 2026-04-07 18:38 | 20.41709 | -58.27919 | 39430 ft | 423 kts | 234° |
| 2026-04-07 18:38 | 20.39784 | -58.30291 | 39566 ft | 423 kts | 234° |
| 2026-04-07 18:38 | 20.37857 | -58.32665 | 39695 ft | 423 kts | 234° |
| 2026-04-07 18:39 | 20.35933 | -58.35034 | 39811 ft | 423 kts | 234° |
| 2026-04-07 18:39 | 20.34008 | -58.37403 | 39948 ft | 423 kts | 234° |
| 2026-04-07 18:39 | 20.32078 | -58.39777 | 40060 ft | 422 kts | 234° |
| 2026-04-07 18:39 | 20.30157 | -58.42140 | 40109 ft | 422 kts | 234° |
| 2026-04-07 18:40 | 20.26312 | -58.46863 | 40096 ft | 421 kts | 235° |
| 2026-04-07 18:40 | 20.22484 | -58.51561 | 40113 ft | 421 kts | 235° |
| 2026-04-07 18:42 | 20.18796 | -58.56088 | 40112 ft | 420 kts | 235° |
| 2026-04-07 18:42 | 20.14963 | -58.60787 | 40111 ft | 420 kts | 235° |
| 2026-04-07 18:43 | 20.11125 | -58.65488 | 40107 ft | 420 kts | 235° |
| 2026-04-07 18:43 | 20.07302 | -58.70167 | 40110 ft | 421 kts | 235° |
| 2026-04-07 18:44 | 20.03455 | -58.74870 | 40093 ft | 420 kts | 235° |
| 2026-04-07 18:44 | 19.99645 | -58.79524 | 40108 ft | 419 kts | 235° |
| 2026-04-07 18:45 | 19.95814 | -58.84202 | 40104 ft | 419 kts | 235° |
| 2026-04-07 18:45 | 19.91975 | -58.88886 | 40103 ft | 419 kts | 235° |
| 2026-04-07 18:46 | 19.88144 | -58.93556 | 40102 ft | 419 kts | 235° |
| 2026-04-07 18:46 | 19.84338 | -58.98192 | 40100 ft | 419 kts | 235° |
| 2026-04-07 18:47 | 19.80507 | -59.02853 | 40103 ft | 419 kts | 235° |
| 2026-04-07 18:47 | 19.76680 | -59.07505 | 40104 ft | 417 kts | 235° |
| 2026-04-07 18:48 | 19.72867 | -59.12139 | 40088 ft | 416 kts | 235° |
| 2026-04-07 18:48 | 19.69051 | -59.16773 | 40091 ft | 416 kts | 235° |
| 2026-04-07 18:49 | 19.65244 | -59.21391 | 40084 ft | 416 kts | 235° |
| 2026-04-07 18:49 | 19.61455 | -59.25984 | 40085 ft | 416 kts | 235° |
| 2026-04-07 18:50 | 19.57643 | -59.30602 | 40085 ft | 416 kts | 235° |
| 2026-04-07 18:50 | 19.53828 | -59.35217 | 40094 ft | 415 kts | 235° |
| 2026-04-07 18:51 | 19.50049 | -59.39788 | 40090 ft | 414 kts | 235° |
| 2026-04-07 18:51 | 19.46251 | -59.44378 | 40087 ft | 414 kts | 235° |
| 2026-04-07 18:52 | 19.42449 | -59.48969 | 40083 ft | 414 kts | 235° |
| 2026-04-07 18:52 | 19.38650 | -59.53553 | 40082 ft | 414 kts | 235° |
| 2026-04-07 18:53 | 19.34843 | -59.58143 | 40085 ft | 414 kts | 235° |
| 2026-04-07 18:53 | 19.31039 | -59.62727 | 40083 ft | 414 kts | 235° |
| 2026-04-07 18:54 | 19.27261 | -59.67277 | 40078 ft | 414 kts | 235° |
| 2026-04-07 18:54 | 19.23453 | -59.71859 | 40080 ft | 414 kts | 235° |
| 2026-04-07 18:55 | 19.19643 | -59.76438 | 40086 ft | 415 kts | 235° |
| 2026-04-07 18:55 | 19.15828 | -59.81021 | 40086 ft | 415 kts | 235° |
| 2026-04-07 18:56 | 19.12009 | -59.85606 | 40084 ft | 415 kts | 235° |
| 2026-04-07 18:56 | 19.08185 | -59.90194 | 40070 ft | 415 kts | 235° |
| 2026-04-07 18:57 | 19.04363 | -59.94776 | 40073 ft | 415 kts | 235° |
| 2026-04-07 18:57 | 19.00528 | -59.99346 | 40074 ft | 417 kts | 234° |
| 2026-04-07 18:58 | 18.96382 | -60.03642 | 40075 ft | 421 kts | 231° |
| 2026-04-07 18:58 | 18.92142 | -60.07903 | 40077 ft | 420 kts | 231° |
| 2026-04-07 18:59 | 18.87923 | -60.12158 | 40077 ft | 420 kts | 231° |
| 2026-04-07 18:59 | 18.83694 | -60.16416 | 40074 ft | 420 kts | 231° |
| 2026-04-07 19:00 | 18.79458 | -60.20675 | 40076 ft | 421 kts | 231° |
| 2026-04-07 19:00 | 18.75218 | -60.24934 | 40077 ft | 421 kts | 231° |
| 2026-04-07 19:01 | 18.70966 | -60.29203 | 40078 ft | 421 kts | 231° |
| 2026-04-07 19:02 | 18.64621 | -60.35568 | 40071 ft | 421 kts | 231° |
| 2026-04-07 19:02 | 18.60371 | -60.39825 | 40067 ft | 421 kts | 231° |
| 2026-04-07 19:03 | 18.56129 | -60.44073 | 40063 ft | 420 kts | 231° |
| 2026-04-07 19:03 | 18.52603 | -60.47602 | 40065 ft | 421 kts | 231° |
| 2026-04-07 19:04 | 18.47670 | -60.52535 | 40059 ft | 421 kts | 231° |
| 2026-04-07 19:04 | 18.43417 | -60.56784 | 40059 ft | 421 kts | 231° |
| 2026-04-07 19:05 | 18.39857 | -60.60339 | 40060 ft | 421 kts | 231° |
| 2026-04-07 19:05 | 18.35624 | -60.64562 | 40063 ft | 421 kts | 231° |
| 2026-04-07 19:06 | 18.31368 | -60.68805 | 40066 ft | 421 kts | 230° |
| 2026-04-07 19:06 | 18.27117 | -60.73041 | 40060 ft | 421 kts | 230° |
| 2026-04-07 19:07 | 18.22862 | -60.77278 | 40056 ft | 421 kts | 230° |
| 2026-04-07 19:07 | 18.18606 | -60.81513 | 40058 ft | 421 kts | 230° |
| 2026-04-07 19:08 | 18.14368 | -60.85727 | 40059 ft | 421 kts | 230° |
| 2026-04-07 19:08 | 18.10226 | -60.89840 | 39757 ft | 417 kts | 230° |
| 2026-04-07 19:08 | 18.08116 | -60.91935 | 39232 ft | 416 kts | 230° |
| 2026-04-07 19:09 | 18.06007 | -60.94030 | 38575 ft | 417 kts | 230° |
| 2026-04-07 19:09 | 18.03901 | -60.96122 | 37764 ft | 418 kts | 230° |
| 2026-04-07 19:09 | 18.01783 | -60.98227 | 36851 ft | 422 kts | 230° |
| 2026-04-07 19:09 | 17.99683 | -61.00403 | 35919 ft | 423 kts | 233° |
| 2026-04-07 19:10 | 17.97765 | -61.02760 | 34989 ft | 425 kts | 236° |
| 2026-04-07 19:10 | 17.95883 | -61.05131 | 34053 ft | 430 kts | 235° |
| 2026-04-07 19:10 | 17.93946 | -61.07560 | 32923 ft | 436 kts | 234° |
| 2026-04-07 19:10 | 17.91977 | -61.10023 | 31692 ft | 444 kts | 234° |
| 2026-04-07 19:11 | 17.89975 | -61.12522 | 30604 ft | 450 kts | 233° |
| 2026-04-07 19:11 | 17.87956 | -61.15037 | 29783 ft | 449 kts | 233° |
| 2026-04-07 19:11 | 17.85949 | -61.17532 | 29099 ft | 443 kts | 233° |
| 2026-04-07 19:11 | 17.83970 | -61.19991 | 28401 ft | 438 kts | 233° |
| 2026-04-07 19:12 | 17.82011 | -61.22428 | 27688 ft | 434 kts | 233° |
| 2026-04-07 19:12 | 17.80074 | -61.24838 | 26998 ft | 430 kts | 233° |
| 2026-04-07 19:12 | 17.78153 | -61.27228 | 26302 ft | 426 kts | 233° |
| 2026-04-07 19:12 | 17.76274 | -61.29565 | 25633 ft | 422 kts | 233° |
| 2026-04-07 19:13 | 17.74387 | -61.31912 | 24968 ft | 419 kts | 232° |
| 2026-04-07 19:13 | 17.72513 | -61.34242 | 24298 ft | 415 kts | 232° |
| 2026-04-07 19:13 | 17.70656 | -61.36550 | 23649 ft | 412 kts | 232° |
| 2026-04-07 19:13 | 17.68817 | -61.38834 | 22929 ft | 408 kts | 232° |
| 2026-04-07 19:14 | 17.66995 | -61.41095 | 22239 ft | 402 kts | 232° |
| 2026-04-07 19:14 | 17.65198 | -61.43324 | 21552 ft | 397 kts | 232° |
| 2026-04-07 19:14 | 17.63422 | -61.45528 | 20850 ft | 392 kts | 231° |
| 2026-04-07 19:14 | 17.61694 | -61.47672 | 20175 ft | 388 kts | 231° |
| 2026-04-07 19:15 | 17.59960 | -61.49821 | 19503 ft | 383 kts | 231° |
| 2026-04-07 19:15 | 17.58251 | -61.51939 | 18824 ft | 378 kts | 231° |
| 2026-04-07 19:15 | 17.56562 | -61.54032 | 18127 ft | 374 kts | 231° |
| 2026-04-07 19:15 | 17.54891 | -61.56102 | 17316 ft | 371 kts | 231° |
| 2026-04-07 19:16 | 17.53222 | -61.58166 | 16452 ft | 369 kts | 231° |
| 2026-04-07 19:16 | 17.51563 | -61.60217 | 15631 ft | 368 kts | 231° |
| 2026-04-07 19:16 | 17.49915 | -61.62255 | 14859 ft | 366 kts | 231° |
| 2026-04-07 19:16 | 17.48273 | -61.64285 | 14037 ft | 366 kts | 232° |
| 2026-04-07 19:17 | 17.46637 | -61.66306 | 13288 ft | 362 kts | 232° |
| 2026-04-07 19:17 | 17.45023 | -61.68303 | 12561 ft | 356 kts | 231° |
| 2026-04-07 19:17 | 17.43453 | -61.70249 | 11798 ft | 353 kts | 231° |
| 2026-04-07 19:17 | 17.41885 | -61.72187 | 11180 ft | 345 kts | 231° |
| 2026-04-07 19:18 | 17.40350 | -61.74082 | 10498 ft | 340 kts | 231° |
| 2026-04-07 19:18 | 17.38844 | -61.75942 | 10169 ft | 325 kts | 231° |
| 2026-04-07 19:18 | 17.37424 | -61.77693 | 9977 ft | 305 kts | 231° |
| 2026-04-07 19:18 | 17.36099 | -61.79323 | 9928 ft | 281 kts | 231° |
| 2026-04-07 19:19 | 17.34882 | -61.80825 | 9870 ft | 263 kts | 231° |
| 2026-04-07 19:19 | 17.33673 | -61.82320 | 9561 ft | 274 kts | 230° |
| 2026-04-07 19:19 | 17.32506 | -61.83845 | 9200 ft | 268 kts | 238° |
| 2026-04-07 19:19 | 17.31798 | -61.85621 | 8864 ft | 264 kts | 255° |
| 2026-04-07 19:20 | 17.31245 | -61.87480 | 8524 ft | 269 kts | 250° |
| 2026-04-07 19:20 | 17.30518 | -61.89289 | 8180 ft | 270 kts | 244° |
| 2026-04-07 19:20 | 17.29619 | -61.91016 | 7845 ft | 271 kts | 238° |
| 2026-04-07 19:20 | 17.28574 | -61.92622 | 7500 ft | 261 kts | 233° |
| 2026-04-07 19:21 | 17.27438 | -61.94058 | 7161 ft | 252 kts | 227° |
| 2026-04-07 19:21 | 17.26224 | -61.95344 | 6821 ft | 245 kts | 222° |
| 2026-04-07 19:21 | 17.24962 | -61.96471 | 6517 ft | 237 kts | 217° |
| 2026-04-07 19:21 | 17.23636 | -61.97472 | 6180 ft | 232 kts | 212° |
| 2026-04-07 19:22 | 17.22274 | -61.98341 | 5822 ft | 225 kts | 206° |
| 2026-04-07 19:22 | 17.20896 | -61.99071 | 5482 ft | 219 kts | 202° |
| 2026-04-07 19:22 | 17.19506 | -61.99675 | 5134 ft | 213 kts | 195° |
| 2026-04-07 19:22 | 17.18112 | -62.00146 | 4791 ft | 209 kts | 192° |
| 2026-04-07 19:23 | 17.16722 | -62.00505 | 4496 ft | 204 kts | 187° |
| 2026-04-07 19:23 | 17.15329 | -62.00749 | 4197 ft | 202 kts | 184° |
| 2026-04-07 19:23 | 17.13932 | -62.00896 | 3892 ft | 201 kts | 179° |
| 2026-04-07 19:23 | 17.12558 | -62.00943 | 3642 ft | 197 kts | 175° |
| 2026-04-07 19:24 | 17.11200 | -62.00891 | 3384 ft | 193 kts | 171° |
| 2026-04-07 19:24 | 17.09875 | -62.00745 | 3143 ft | 190 kts | 167° |
| 2026-04-07 19:24 | 17.08598 | -62.00463 | 2887 ft | 185 kts | 154° |
| 2026-04-07 19:24 | 17.07619 | -61.99675 | 2671 ft | 175 kts | 121° |
| 2026-04-07 19:25 | 17.07084 | -61.98570 | 2471 ft | 168 kts | 113° |
| 2026-04-07 19:25 | 17.06647 | -61.97506 | 2472 ft | 150 kts | 111° |
| 2026-04-07 19:25 | 17.06274 | -61.96583 | 2445 ft | 130 kts | 111° |
| 2026-04-07 19:25 | 17.06159 | -61.95653 | 2304 ft | 132 kts | 83° |
| 2026-04-07 19:26 | 17.06505 | -61.94761 | 2161 ft | 132 kts | 68° |
| 2026-04-07 19:26 | 17.06898 | -61.93910 | 1842 ft | 129 kts | 67° |
| 2026-04-07 19:26 | 17.07274 | -61.93062 | 1538 ft | 131 kts | 68° |
| 2026-04-07 19:26 | 17.07658 | -61.92183 | 1531 ft | 134 kts | 69° |
| 2026-04-07 19:27 | 17.08025 | -61.91298 | 1527 ft | 133 kts | 70° |
| 2026-04-07 19:27 | 17.08388 | -61.90402 | 1356 ft | 133 kts | 70° |
| 2026-04-07 19:27 | 17.08740 | -61.89497 | 1450 ft | 135 kts | 72° |
| 2026-04-07 19:27 | 17.09099 | -61.88586 | 1392 ft | 134 kts | 72° |
| 2026-04-07 19:28 | 17.09469 | -61.87662 | 1306 ft | 145 kts | 71° |
| 2026-04-07 19:28 | 17.09859 | -61.86687 | 1187 ft | 140 kts | 70° |
| 2026-04-07 19:28 | 17.10216 | -61.85781 | 1014 ft | 131 kts | 70° |
| 2026-04-07 19:28 | 17.10584 | -61.84858 | 914 ft | 148 kts | 71° |
| 2026-04-07 19:29 | 17.11000 | -61.83898 | 794 ft | 141 kts | 67° |
| 2026-04-07 19:29 | 17.11466 | -61.83013 | 644 ft | 136 kts | 61° |
| 2026-04-07 19:29 | 17.11946 | -61.82206 | 542 ft | 128 kts | 62° |
| 2026-04-07 19:29 | 17.12429 | -61.81386 | 371 ft | 139 kts | 61° |
| 2026-04-07 19:30 | 17.12940 | -61.80522 | 173 ft | 137 kts | 60° |
| 2026-04-07 19:30 | 17.13425 | -61.79685 | 69 ft | 123 kts | 58° |
| 2026-04-07 19:30 | 17.13712 | -61.79199 | 65 ft | 35 kts | 58° |
| 2026-04-07 19:30 | 17.13795 | -61.79086 | 66 ft | 13 kts | 25° |
| 2026-04-07 19:31 | 17.13860 | -61.79117 | 67 ft | 12 kts | 328° |
| 2026-04-07 19:31 | 17.13948 | -61.79109 | 62 ft | 14 kts | 32° |
| 2026-04-07 19:31 | 17.13999 | -61.79044 | 59 ft | 10 kts | 57° |
| 2026-04-07 19:31 | 17.14032 | -61.78987 | 59 ft | 9 kts | 59° |
| 2026-04-07 19:32 | 17.14076 | -61.78947 | 62 ft | 8 kts | 9° |
| 2026-04-07 19:32 | 17.14108 | -61.78959 | 63 ft | 3 kts | 336° |
| 2026-04-07 19:32 | 17.14123 | -61.78969 | 67 ft | 2 kts | 328° |
| 2026-04-07 19:32 | 17.14133 | -61.78975 | 64 ft | 1 kts | 328° |
| 2026-04-07 19:33 | 17.14135 | -61.78977 | 64 ft | 0 kts | 328° |